<?xml version="1.0" encoding="UTF-8" standalone="no" ?>
<gpx xmlns="http://www.topografix.com/GPX/1/1" xmlns:xsi="http://www.w3.org/2001/XMLSchema-instance" xsi:schemaLocation="http://www.topografix.com/GPX/1/1 http://www.topografix.com/GPX/1/1/gpx.xsd" version="1.1" creator="VisuGPX - https://www.visugpx.com">
  <metadata>
    <name>GTJ-GTPA Belfort-Nice</name>
    <desc><![CDATA[du \\\"mountain bike\\\" itinérant couplant traversée du jura et traversée des préaples
petite douceur finale avec la fin de la Transvesubienne depuis levens...]]></desc>
  </metadata>
  <trk>
    <name><![CDATA[GTPA grenoble-nice]]></name>
    <trkseg>
      <trkpt lat="45.19132" lon="5.71511">
        <ele>178</ele>
        <time>2010-06-28T07:44:37Z</time>
      </trkpt>
      <trkpt lat="45.19124" lon="5.71472">
        <ele>260</ele>
        <time>2010-06-28T07:46:27Z</time>
      </trkpt>
      <trkpt lat="45.19068" lon="5.71478">
        <ele>229</ele>
        <time>2010-06-28T07:48:18Z</time>
      </trkpt>
      <trkpt lat="45.18909" lon="5.71542">
        <ele>219</ele>
        <time>2010-06-28T07:49:12Z</time>
      </trkpt>
      <trkpt lat="45.18842" lon="5.71475">
        <ele>226</ele>
        <time>2010-06-28T07:50:06Z</time>
      </trkpt>
      <trkpt lat="45.18912" lon="5.70058">
        <ele>246</ele>
        <time>2010-06-28T07:57:07Z</time>
      </trkpt>
      <trkpt lat="45.18767" lon="5.70046">
        <ele>239</ele>
        <time>2010-06-28T08:01:47Z</time>
      </trkpt>
      <trkpt lat="45.18513" lon="5.68856">
        <ele>220</ele>
        <time>2010-06-28T08:07:45Z</time>
      </trkpt>
      <trkpt lat="45.18545" lon="5.68819">
        <ele>219</ele>
        <time>2010-06-28T08:08:21Z</time>
      </trkpt>
      <trkpt lat="45.18422" lon="5.68951">
        <ele>225</ele>
        <time>2010-06-28T08:09:09Z</time>
      </trkpt>
      <trkpt lat="45.18107" lon="5.68592">
        <ele>265</ele>
        <time>2010-06-28T08:18:04Z</time>
      </trkpt>
      <trkpt lat="45.18102" lon="5.68589">
        <ele>264</ele>
        <time>2010-06-28T08:18:07Z</time>
      </trkpt>
      <trkpt lat="45.18531" lon="5.68245">
        <ele>310</ele>
        <time>2010-06-28T08:25:37Z</time>
      </trkpt>
      <trkpt lat="45.18835" lon="5.67256">
        <ele>383</ele>
        <time>2010-06-28T08:34:07Z</time>
      </trkpt>
      <trkpt lat="45.1817" lon="5.6723">
        <ele>435</ele>
        <time>2010-06-28T08:51:58Z</time>
      </trkpt>
      <trkpt lat="45.1808" lon="5.66968">
        <ele>428</ele>
        <time>2010-06-28T08:56:05Z</time>
      </trkpt>
      <trkpt lat="45.18622" lon="5.66316">
        <ele>486</ele>
        <time>2010-06-28T09:02:11Z</time>
      </trkpt>
      <trkpt lat="45.18515" lon="5.66024">
        <ele>543</ele>
        <time>2010-06-28T09:10:11Z</time>
      </trkpt>
      <trkpt lat="45.18316" lon="5.66141">
        <ele>607</ele>
        <time>2010-06-28T09:14:20Z</time>
      </trkpt>
      <trkpt lat="45.18035" lon="5.66012">
        <ele>628</ele>
        <time>2010-06-28T09:19:09Z</time>
      </trkpt>
      <trkpt lat="45.17979" lon="5.66291">
        <ele>648</ele>
        <time>2010-06-28T09:20:21Z</time>
      </trkpt>
      <trkpt lat="45.17465" lon="5.66397">
        <ele>666</ele>
        <time>2010-06-28T09:23:42Z</time>
      </trkpt>
      <trkpt lat="45.17245" lon="5.66489">
        <ele>643</ele>
        <time>2010-06-28T09:24:51Z</time>
      </trkpt>
      <trkpt lat="45.17173" lon="5.66691">
        <ele>656</ele>
        <time>2010-06-28T09:26:06Z</time>
      </trkpt>
      <trkpt lat="45.17087" lon="5.6646">
        <ele>690</ele>
        <time>2010-06-28T09:40:49Z</time>
      </trkpt>
      <trkpt lat="45.17543" lon="5.65298">
        <ele>758.9</ele>
      </trkpt>
      <trkpt lat="45.17015" lon="5.65717">
        <ele>822</ele>
        <time>2010-06-29T12:55:55Z</time>
      </trkpt>
      <trkpt lat="45.1691" lon="5.65992">
        <ele>840</ele>
        <time>2010-06-29T12:57:25Z</time>
      </trkpt>
      <trkpt lat="45.16601" lon="5.65678">
        <ele>903</ele>
        <time>2010-06-29T12:59:57Z</time>
      </trkpt>
      <trkpt lat="45.16105" lon="5.65563">
        <ele>883</ele>
        <time>2010-06-29T13:03:37Z</time>
      </trkpt>
      <trkpt lat="45.16587" lon="5.6545">
        <ele>967</ele>
        <time>2010-06-29T13:07:10Z</time>
      </trkpt>
      <trkpt lat="45.16659" lon="5.6542">
        <ele>953</ele>
        <time>2010-06-29T13:07:42Z</time>
      </trkpt>
      <trkpt lat="45.16855" lon="5.64727">
        <ele>961</ele>
        <time>2010-06-29T13:18:19Z</time>
      </trkpt>
      <trkpt lat="45.17508" lon="5.64503">
        <ele>998</ele>
      </trkpt>
      <trkpt lat="45.1668" lon="5.64018">
        <ele>1120</ele>
        <time>2010-06-29T14:03:32Z</time>
      </trkpt>
      <trkpt lat="45.16708" lon="5.63765">
        <ele>1149</ele>
        <time>2010-06-29T14:04:36Z</time>
      </trkpt>
      <trkpt lat="45.17047" lon="5.63669">
        <ele>1204</ele>
        <time>2010-06-29T14:06:30Z</time>
      </trkpt>
      <trkpt lat="45.17195" lon="5.63501">
        <ele>1168</ele>
        <time>2010-06-29T14:07:14Z</time>
      </trkpt>
      <trkpt lat="45.17047" lon="5.62748">
        <ele>1187</ele>
        <time>2009-06-23T12:04:53Z</time>
      </trkpt>
      <trkpt lat="45.16913" lon="5.62739">
        <ele>1187</ele>
        <time>2009-06-23T12:07:30Z</time>
      </trkpt>
      <trkpt lat="45.16888" lon="5.62444">
        <ele>1172</ele>
        <time>2009-06-23T12:09:43Z</time>
      </trkpt>
      <trkpt lat="45.16328" lon="5.62561">
        <ele>1166</ele>
        <time>2009-06-23T12:20:17Z</time>
      </trkpt>
      <trkpt lat="45.16067" lon="5.61782">
        <ele>1165</ele>
        <time>2009-06-23T12:24:28Z</time>
      </trkpt>
      <trkpt lat="45.14549" lon="5.61935">
        <ele>1055</ele>
        <time>2009-06-23T12:31:00Z</time>
      </trkpt>
      <trkpt lat="45.1444" lon="5.61489">
        <ele>1042</ele>
        <time>2009-06-23T12:33:16Z</time>
      </trkpt>
      <trkpt lat="45.14618" lon="5.61084">
        <ele>1080</ele>
        <time>2009-06-23T12:37:06Z</time>
      </trkpt>
      <trkpt lat="45.14408" lon="5.60942">
        <ele>1156</ele>
        <time>2009-06-23T12:40:22Z</time>
      </trkpt>
      <trkpt lat="45.15015" lon="5.60506">
        <ele>1111</ele>
        <time>2009-06-23T12:56:19Z</time>
      </trkpt>
      <trkpt lat="45.14508" lon="5.60342">
        <ele>1067</ele>
        <time>2009-06-23T12:59:50Z</time>
      </trkpt>
      <trkpt lat="45.14361" lon="5.60014">
        <ele>1053</ele>
        <time>2009-06-23T13:00:53Z</time>
      </trkpt>
      <trkpt lat="45.14116" lon="5.59895">
        <ele>1007</ele>
        <time>2009-06-23T13:01:23Z</time>
      </trkpt>
      <trkpt lat="45.13989" lon="5.59514">
        <ele>989</ele>
        <time>2009-06-23T13:03:27Z</time>
      </trkpt>
      <trkpt lat="45.13779" lon="5.59432">
        <ele>1017</ele>
        <time>2009-06-23T13:06:24Z</time>
      </trkpt>
      <trkpt lat="45.13598" lon="5.59851">
        <ele>1033</ele>
        <time>2009-06-23T13:09:27Z</time>
      </trkpt>
      <trkpt lat="45.12938" lon="5.59496">
        <ele>1028</ele>
        <time>2009-06-23T13:12:58Z</time>
      </trkpt>
      <trkpt lat="45.12839" lon="5.59107">
        <ele>1035</ele>
        <time>2009-06-23T13:23:04Z</time>
      </trkpt>
      <trkpt lat="45.12941" lon="5.58319">
        <ele>1008</ele>
        <time>2009-06-23T13:28:40Z</time>
      </trkpt>
      <trkpt lat="45.11484" lon="5.57644">
        <ele>996</ele>
        <time>2009-06-23T13:34:32Z</time>
      </trkpt>
      <trkpt lat="45.10188" lon="5.56402">
        <ele>995</ele>
        <time>2009-06-23T13:38:47Z</time>
      </trkpt>
      <trkpt lat="45.10102" lon="5.5632">
        <ele>989</ele>
        <time>2009-06-23T13:39:08Z</time>
      </trkpt>
      <trkpt lat="45.09854" lon="5.58554">
        <ele>1073.6</ele>
      </trkpt>
      <trkpt lat="45.10082" lon="5.58672">
        <ele>1097.5</ele>
      </trkpt>
      <trkpt lat="45.10056" lon="5.58944">
        <ele>1145.7</ele>
      </trkpt>
      <trkpt lat="45.11256" lon="5.59468">
        <ele>1289.2</ele>
      </trkpt>
      <trkpt lat="45.11131" lon="5.59909">
        <ele>1326.5</ele>
      </trkpt>
      <trkpt lat="45.10965" lon="5.59658">
        <ele>1344.1</ele>
      </trkpt>
      <trkpt lat="45.0998" lon="5.59655">
        <ele>1457</ele>
        <time>2009-06-19T08:58:12Z</time>
      </trkpt>
      <trkpt lat="45.08677" lon="5.59397">
        <ele>1396</ele>
        <time>2009-06-19T09:07:21Z</time>
      </trkpt>
      <trkpt lat="45.08589" lon="5.59653">
        <ele>1424</ele>
        <time>2009-06-19T09:12:23Z</time>
      </trkpt>
      <trkpt lat="45.08313" lon="5.59819">
        <ele>1361</ele>
        <time>2009-06-19T09:13:17Z</time>
      </trkpt>
      <trkpt lat="45.07788" lon="5.59335">
        <ele>1288</ele>
        <time>2009-06-19T09:17:13Z</time>
      </trkpt>
      <trkpt lat="45.07299" lon="5.57942">
        <ele>1235</ele>
        <time>2009-06-19T09:24:33Z</time>
      </trkpt>
      <trkpt lat="45.07187" lon="5.5788">
        <ele>1191</ele>
        <time>2009-06-19T09:26:48Z</time>
      </trkpt>
      <trkpt lat="45.07248" lon="5.56872">
        <ele>1059</ele>
        <time>2009-06-19T09:36:30Z</time>
      </trkpt>
      <trkpt lat="45.07505" lon="5.56734">
        <ele>1025</ele>
        <time>2009-06-19T09:37:15Z</time>
      </trkpt>
      <trkpt lat="45.07378" lon="5.56366">
        <ele>1047</ele>
        <time>2009-06-19T09:43:54Z</time>
      </trkpt>
      <trkpt lat="45.07239" lon="5.56603">
        <ele>1060</ele>
        <time>2009-06-19T09:49:10Z</time>
      </trkpt>
      <trkpt lat="45.06483" lon="5.56632">
        <ele>1137</ele>
        <time>2009-06-19T10:03:01Z</time>
      </trkpt>
      <trkpt lat="45.06183" lon="5.56746">
        <ele>1119</ele>
        <time>2009-06-19T10:08:38Z</time>
      </trkpt>
      <trkpt lat="45.0627" lon="5.56337">
        <ele>1146</ele>
        <time>2009-06-19T10:11:46Z</time>
      </trkpt>
      <trkpt lat="45.0615" lon="5.55571">
        <ele>1069</ele>
        <time>2009-06-19T10:17:33Z</time>
      </trkpt>
      <trkpt lat="45.05353" lon="5.55352">
        <ele>1148</ele>
        <time>2009-06-19T10:29:17Z</time>
      </trkpt>
      <trkpt lat="45.04837" lon="5.55248">
        <ele>1134</ele>
        <time>2009-06-19T10:46:01Z</time>
      </trkpt>
      <trkpt lat="45.04816" lon="5.55533">
        <ele>1122</ele>
        <time>2009-06-19T10:46:37Z</time>
      </trkpt>
      <trkpt lat="45.0464" lon="5.55529">
        <ele>1136</ele>
        <time>2009-06-19T10:49:15Z</time>
      </trkpt>
      <trkpt lat="45.04456" lon="5.55842">
        <ele>1132</ele>
        <time>2009-06-19T10:50:24Z</time>
      </trkpt>
      <trkpt lat="45.0439" lon="5.55669">
        <ele>1166</ele>
        <time>2009-06-19T10:52:04Z</time>
      </trkpt>
      <trkpt lat="45.04146" lon="5.55158">
        <ele>1174</ele>
        <time>2009-06-19T10:56:20Z</time>
      </trkpt>
      <trkpt lat="45.04079" lon="5.53884">
        <ele>1110</ele>
        <time>2009-06-19T11:03:08Z</time>
      </trkpt>
      <trkpt lat="45.02805" lon="5.52644">
        <ele>1116</ele>
        <time>2009-06-19T11:27:00Z</time>
      </trkpt>
      <trkpt lat="45.02503" lon="5.51908">
        <ele>1152</ele>
        <time>2009-06-19T11:35:52Z</time>
      </trkpt>
      <trkpt lat="45.02315" lon="5.51705">
        <ele>1131</ele>
        <time>2009-06-19T11:43:30Z</time>
      </trkpt>
      <trkpt lat="45.02501" lon="5.51518">
        <ele>1201</ele>
        <time>2009-06-19T11:46:06Z</time>
      </trkpt>
      <trkpt lat="45.02668" lon="5.51476">
        <ele>1195</ele>
        <time>2009-06-19T11:49:03Z</time>
      </trkpt>
      <trkpt lat="45.03176" lon="5.50784">
        <ele>1245</ele>
        <time>2009-06-19T11:55:47Z</time>
      </trkpt>
      <trkpt lat="45.03679" lon="5.50786">
        <ele>1302</ele>
        <time>2009-06-19T12:00:11Z</time>
      </trkpt>
      <trkpt lat="45.03906" lon="5.50142">
        <ele>1309</ele>
        <time>2009-06-19T12:15:55Z</time>
      </trkpt>
      <trkpt lat="45.0413" lon="5.50052">
        <ele>1326</ele>
        <time>2009-06-19T12:19:07Z</time>
      </trkpt>
      <trkpt lat="45.04279" lon="5.4987">
        <ele>1299</ele>
        <time>2009-06-19T12:25:24Z</time>
      </trkpt>
      <trkpt lat="45.0411" lon="5.49705">
        <ele>1359</ele>
        <time>2009-06-19T12:28:07Z</time>
      </trkpt>
      <trkpt lat="45.039" lon="5.49588">
        <ele>1360</ele>
        <time>2009-06-19T12:31:19Z</time>
      </trkpt>
      <trkpt lat="45.04075" lon="5.49354">
        <ele>1440</ele>
        <time>2009-06-19T12:38:25Z</time>
      </trkpt>
      <trkpt lat="45.04478" lon="5.49257">
        <ele>1476</ele>
        <time>2009-06-19T12:49:19Z</time>
      </trkpt>
      <trkpt lat="45.04784" lon="5.48857">
        <ele>1549</ele>
        <time>2009-06-19T12:58:34Z</time>
      </trkpt>
      <trkpt lat="45.04888" lon="5.48628">
        <ele>1511</ele>
        <time>2009-06-19T13:02:00Z</time>
      </trkpt>
      <trkpt lat="45.04502" lon="5.48329">
        <ele>1538</ele>
        <time>2009-06-19T13:05:19Z</time>
      </trkpt>
      <trkpt lat="45.04373" lon="5.48243">
        <ele>1515</ele>
        <time>2009-06-19T13:08:33Z</time>
      </trkpt>
      <trkpt lat="45.05093" lon="5.47993">
        <ele>1423</ele>
        <time>2009-06-19T13:09:51Z</time>
      </trkpt>
      <trkpt lat="45.04344" lon="5.47633">
        <ele>1396</ele>
        <time>2009-06-19T13:15:15Z</time>
      </trkpt>
      <trkpt lat="45.03445" lon="5.4798">
        <ele>1346</ele>
        <time>2009-06-19T13:18:09Z</time>
      </trkpt>
      <trkpt lat="45.02068" lon="5.47558">
        <ele>1312</ele>
        <time>2009-06-19T13:31:01Z</time>
      </trkpt>
      <trkpt lat="45.01429" lon="5.47045">
        <ele>1346</ele>
        <time>2009-06-19T13:40:08Z</time>
      </trkpt>
      <trkpt lat="45.01808" lon="5.46456">
        <ele>1231</ele>
        <time>2009-06-19T13:49:10Z</time>
      </trkpt>
      <trkpt lat="45.0162" lon="5.46658">
        <ele>1232</ele>
        <time>2009-06-19T13:50:58Z</time>
      </trkpt>
      <trkpt lat="45.00877" lon="5.46596">
        <ele>1032</ele>
        <time>2009-06-19T13:57:02Z</time>
      </trkpt>
      <trkpt lat="45.0109" lon="5.46452">
        <ele>1001</ele>
        <time>2009-06-19T13:57:56Z</time>
      </trkpt>
      <trkpt lat="45.00396" lon="5.4618">
        <ele>922</ele>
        <time>2009-06-19T13:59:53Z</time>
      </trkpt>
      <trkpt lat="45.00153" lon="5.46064">
        <ele>834</ele>
        <time>2009-06-19T14:00:26Z</time>
      </trkpt>
      <trkpt lat="45.00107" lon="5.45746">
        <ele>823</ele>
        <time>2009-06-19T14:02:50Z</time>
      </trkpt>
      <trkpt lat="45.00327" lon="5.45132">
        <ele>805</ele>
        <time>2009-06-19T14:03:44Z</time>
      </trkpt>
      <trkpt lat="45.00406" lon="5.45213">
        <ele>805</ele>
        <time>2009-06-19T14:03:59Z</time>
      </trkpt>
      <trkpt lat="45.00504" lon="5.45087">
        <ele>717</ele>
        <time>2009-06-19T14:07:25Z</time>
      </trkpt>
      <trkpt lat="45.00459" lon="5.44992">
        <ele>748</ele>
        <time>2009-06-19T14:08:56Z</time>
      </trkpt>
      <trkpt lat="45.00396" lon="5.44746">
        <ele>716</ele>
        <time>2009-06-19T14:11:49Z</time>
      </trkpt>
      <trkpt lat="45.00041" lon="5.44701">
        <ele>736</ele>
        <time>2009-06-19T14:14:04Z</time>
      </trkpt>
      <trkpt lat="45.00029" lon="5.44174">
        <ele>726</ele>
        <time>2009-06-19T14:28:03Z</time>
      </trkpt>
      <trkpt lat="44.99871" lon="5.44224">
        <ele>700</ele>
        <time>2009-06-19T14:28:24Z</time>
      </trkpt>
      <trkpt lat="44.99933" lon="5.43785">
        <ele>747</ele>
        <time>2009-06-19T14:31:10Z</time>
      </trkpt>
      <trkpt lat="44.99921" lon="5.43556">
        <ele>734</ele>
        <time>2009-06-19T14:35:23Z</time>
      </trkpt>
      <trkpt lat="44.99076" lon="5.43464">
        <ele>851</ele>
        <time>2009-06-19T14:49:54Z</time>
      </trkpt>
      <trkpt lat="44.9834" lon="5.43382">
        <ele>883</ele>
        <time>2009-06-19T15:00:00Z</time>
      </trkpt>
      <trkpt lat="44.98314" lon="5.43379">
        <ele>855</ele>
        <time>2009-06-19T15:00:39Z</time>
      </trkpt>
      <trkpt lat="44.97824" lon="5.43255">
        <ele>905</ele>
        <time>2009-06-19T15:05:07Z</time>
      </trkpt>
      <trkpt lat="44.96696" lon="5.42685">
        <ele>876</ele>
        <time>2009-06-19T15:15:13Z</time>
      </trkpt>
      <trkpt lat="44.96509" lon="5.42235">
        <ele>896</ele>
        <time>2009-06-19T15:19:39Z</time>
      </trkpt>
      <trkpt lat="44.96997" lon="5.41087">
        <ele>864.7</ele>
      </trkpt>
      <trkpt lat="44.96917" lon="5.40496">
        <ele>834.9</ele>
      </trkpt>
      <trkpt lat="44.97078" lon="5.40099">
        <ele>825.8</ele>
      </trkpt>
      <trkpt lat="44.95674" lon="5.40111">
        <ele>855.7</ele>
      </trkpt>
      <trkpt lat="44.95746" lon="5.39944">
        <ele>874.3</ele>
      </trkpt>
      <trkpt lat="44.94956" lon="5.39799">
        <ele>906.9</ele>
      </trkpt>
      <trkpt lat="44.94373" lon="5.39311">
        <ele>945.9</ele>
      </trkpt>
      <trkpt lat="44.93831" lon="5.39788">
        <ele>1015.7</ele>
      </trkpt>
      <trkpt lat="44.924" lon="5.3983">
        <ele>1048.1</ele>
      </trkpt>
      <trkpt lat="44.92243" lon="5.40072">
        <ele>1048.7</ele>
      </trkpt>
      <trkpt lat="44.91797" lon="5.3992">
        <ele>1058.4</ele>
      </trkpt>
      <trkpt lat="44.91422" lon="5.40628">
        <ele>1079.8</ele>
      </trkpt>
      <trkpt lat="44.90416" lon="5.40472">
        <ele>1093.1</ele>
      </trkpt>
      <trkpt lat="44.90033" lon="5.40086">
        <ele>1092.5</ele>
      </trkpt>
      <trkpt lat="44.90195" lon="5.39022">
        <ele>1056.7</ele>
      </trkpt>
      <trkpt lat="44.89928" lon="5.39229">
        <ele>1060.7</ele>
      </trkpt>
      <trkpt lat="44.89505" lon="5.38832">
        <ele>1056</ele>
      </trkpt>
      <trkpt lat="44.89661" lon="5.38157">
        <ele>1056.1</ele>
      </trkpt>
      <trkpt lat="44.89535" lon="5.37053">
        <ele>1067</ele>
        <time>2009-07-09T06:43:02Z</time>
      </trkpt>
      <trkpt lat="44.89555" lon="5.36565">
        <ele>1062</ele>
        <time>2009-07-09T06:45:42Z</time>
      </trkpt>
      <trkpt lat="44.88292" lon="5.36401">
        <ele>1087</ele>
        <time>2009-07-09T06:52:19Z</time>
      </trkpt>
      <trkpt lat="44.88232" lon="5.36365">
        <ele>1085</ele>
        <time>2009-07-09T06:52:34Z</time>
      </trkpt>
      <trkpt lat="44.88018" lon="5.362">
        <ele>1124</ele>
        <time>2009-07-09T06:57:50Z</time>
      </trkpt>
      <trkpt lat="44.87014" lon="5.35648">
        <ele>1168</ele>
        <time>2009-07-09T07:07:32Z</time>
      </trkpt>
      <trkpt lat="44.87061" lon="5.36089">
        <ele>1141</ele>
        <time>2009-07-09T07:08:21Z</time>
      </trkpt>
      <trkpt lat="44.8681" lon="5.35766">
        <ele>1151</ele>
        <time>2009-07-09T07:13:41Z</time>
      </trkpt>
      <trkpt lat="44.85955" lon="5.35477">
        <ele>1284</ele>
        <time>2009-07-09T07:28:13Z</time>
      </trkpt>
      <trkpt lat="44.84028" lon="5.34388">
        <ele>1381</ele>
        <time>2009-07-09T07:50:41Z</time>
      </trkpt>
      <trkpt lat="44.84241" lon="5.3467">
        <ele>1382</ele>
        <time>2009-07-09T07:51:42Z</time>
      </trkpt>
      <trkpt lat="44.84063" lon="5.34712">
        <ele>1359</ele>
        <time>2009-07-09T07:52:12Z</time>
      </trkpt>
      <trkpt lat="44.84102" lon="5.35193">
        <ele>1356</ele>
        <time>2009-07-09T07:55:10Z</time>
      </trkpt>
      <trkpt lat="44.8382" lon="5.35192">
        <ele>1356</ele>
        <time>2009-07-09T07:56:07Z</time>
      </trkpt>
      <trkpt lat="44.83231" lon="5.34442">
        <ele>1437</ele>
        <time>2009-07-09T08:17:25Z</time>
      </trkpt>
      <trkpt lat="44.82458" lon="5.33811">
        <ele>1174</ele>
        <time>2009-07-09T08:42:38Z</time>
      </trkpt>
      <trkpt lat="44.82257" lon="5.33771">
        <ele>1060</ele>
        <time>2009-07-09T08:44:44Z</time>
      </trkpt>
      <trkpt lat="44.82094" lon="5.32586">
        <ele>1014</ele>
        <time>2009-07-09T08:55:18Z</time>
      </trkpt>
      <trkpt lat="44.81239" lon="5.32106">
        <ele>897</ele>
        <time>2009-07-09T08:59:33Z</time>
      </trkpt>
      <trkpt lat="44.81299" lon="5.31874">
        <ele>847</ele>
        <time>2009-07-09T09:05:31Z</time>
      </trkpt>
      <trkpt lat="44.81187" lon="5.32039">
        <ele>817</ele>
        <time>2009-07-09T09:06:13Z</time>
      </trkpt>
      <trkpt lat="44.8139" lon="5.31739">
        <ele>810</ele>
        <time>2009-07-09T09:11:53Z</time>
      </trkpt>
      <trkpt lat="44.81733" lon="5.31826">
        <ele>819</ele>
        <time>2009-07-09T09:14:38Z</time>
      </trkpt>
      <trkpt lat="44.81728" lon="5.31575">
        <ele>851</ele>
        <time>2009-07-09T09:16:05Z</time>
      </trkpt>
      <trkpt lat="44.81548" lon="5.31325">
        <ele>819</ele>
        <time>2009-07-09T09:19:13Z</time>
      </trkpt>
      <trkpt lat="44.8165" lon="5.3063">
        <ele>820</ele>
        <time>2009-07-09T09:22:37Z</time>
      </trkpt>
      <trkpt lat="44.81503" lon="5.30195">
        <ele>737</ele>
        <time>2009-07-09T09:23:43Z</time>
      </trkpt>
      <trkpt lat="44.811" lon="5.31061">
        <ele>698</ele>
        <time>2009-07-09T09:39:38Z</time>
      </trkpt>
      <trkpt lat="44.80779" lon="5.31282">
        <ele>673</ele>
        <time>2009-07-09T09:41:02Z</time>
      </trkpt>
      <trkpt lat="44.80968" lon="5.31684">
        <ele>717</ele>
        <time>2009-07-09T09:53:57Z</time>
      </trkpt>
      <trkpt lat="44.80838" lon="5.31941">
        <ele>725</ele>
        <time>2009-07-09T09:56:12Z</time>
      </trkpt>
      <trkpt lat="44.80799" lon="5.32082">
        <ele>722</ele>
        <time>2009-07-09T09:56:48Z</time>
      </trkpt>
      <trkpt lat="44.80715" lon="5.32135">
        <ele>698</ele>
        <time>2009-07-09T10:00:28Z</time>
      </trkpt>
      <trkpt lat="44.80861" lon="5.32215">
        <ele>659</ele>
        <time>2009-07-09T10:01:04Z</time>
      </trkpt>
      <trkpt lat="44.80235" lon="5.32214">
        <ele>608</ele>
        <time>2009-07-09T10:07:46Z</time>
      </trkpt>
      <trkpt lat="44.80168" lon="5.33006">
        <ele>625</ele>
        <time>2009-07-09T10:13:12Z</time>
      </trkpt>
      <trkpt lat="44.80402" lon="5.33202">
        <ele>625</ele>
        <time>2009-07-09T10:14:24Z</time>
      </trkpt>
      <trkpt lat="44.80202" lon="5.33352">
        <ele>645</ele>
        <time>2009-07-09T09:11:39Z</time>
      </trkpt>
      <trkpt lat="44.79871" lon="5.33526">
        <ele>600</ele>
        <time>2009-07-09T09:14:25Z</time>
      </trkpt>
      <trkpt lat="44.79935" lon="5.34956">
        <ele>588</ele>
        <time>2009-07-09T09:21:22Z</time>
      </trkpt>
      <trkpt lat="44.79339" lon="5.34835">
        <ele>543</ele>
        <time>2009-07-09T09:26:34Z</time>
      </trkpt>
      <trkpt lat="44.79324" lon="5.36492">
        <ele>612</ele>
        <time>2009-07-09T09:40:49Z</time>
      </trkpt>
      <trkpt lat="44.79105" lon="5.36524">
        <ele>567</ele>
        <time>2009-07-09T09:42:58Z</time>
      </trkpt>
      <trkpt lat="44.79052" lon="5.36432">
        <ele>525</ele>
        <time>2009-07-09T09:43:55Z</time>
      </trkpt>
      <trkpt lat="44.79655" lon="5.3828">
        <ele>533</ele>
        <time>2009-07-09T09:54:02Z</time>
      </trkpt>
      <trkpt lat="44.79452" lon="5.38136">
        <ele>528</ele>
        <time>2009-07-09T09:56:39Z</time>
      </trkpt>
      <trkpt lat="44.79335" lon="5.37335">
        <ele>551</ele>
        <time>2009-07-09T09:58:27Z</time>
      </trkpt>
      <trkpt lat="44.79006" lon="5.36714">
        <ele>545</ele>
        <time>2009-07-09T10:00:27Z</time>
      </trkpt>
      <trkpt lat="44.78666" lon="5.36686">
        <ele>515</ele>
        <time>2009-07-09T10:01:09Z</time>
      </trkpt>
      <trkpt lat="44.77748" lon="5.36789">
        <ele>578</ele>
        <time>2009-07-09T10:15:07Z</time>
      </trkpt>
      <trkpt lat="44.77732" lon="5.36883">
        <ele>614</ele>
        <time>2009-07-09T10:22:13Z</time>
      </trkpt>
      <trkpt lat="44.7758" lon="5.37443">
        <ele>623</ele>
        <time>2009-07-09T10:29:08Z</time>
      </trkpt>
      <trkpt lat="44.77817" lon="5.38091">
        <ele>662</ele>
        <time>2009-07-09T10:34:02Z</time>
      </trkpt>
      <trkpt lat="44.7786" lon="5.38406">
        <ele>679</ele>
        <time>2009-07-09T10:43:20Z</time>
      </trkpt>
      <trkpt lat="44.77728" lon="5.3863">
        <ele>600</ele>
        <time>2009-07-09T10:45:17Z</time>
      </trkpt>
      <trkpt lat="44.76633" lon="5.38082">
        <ele>470</ele>
        <time>2009-07-09T10:53:20Z</time>
      </trkpt>
      <trkpt lat="44.7629" lon="5.38484">
        <ele>436</ele>
        <time>2009-07-09T10:54:05Z</time>
      </trkpt>
      <trkpt lat="44.75538" lon="5.37559">
        <ele>461</ele>
        <time>2009-07-09T10:58:33Z</time>
      </trkpt>
      <trkpt lat="44.7516" lon="5.37256">
        <ele>435</ele>
        <time>2009-07-09T11:03:00Z</time>
      </trkpt>
      <trkpt lat="44.74937" lon="5.37469">
        <ele>405</ele>
        <time>2009-07-09T11:04:38Z</time>
      </trkpt>
      <trkpt lat="44.746" lon="5.38641">
        <ele>418</ele>
        <time>2009-06-10T13:56:47Z</time>
      </trkpt>
      <trkpt lat="44.73939" lon="5.39394">
        <ele>434</ele>
        <time>2009-06-10T14:03:58Z</time>
      </trkpt>
      <trkpt lat="44.73519" lon="5.40354">
        <ele>495</ele>
        <time>2009-06-10T14:13:02Z</time>
      </trkpt>
      <trkpt lat="44.74167" lon="5.41946">
        <ele>565</ele>
        <time>2009-06-10T14:22:57Z</time>
      </trkpt>
      <trkpt lat="44.74155" lon="5.42396">
        <ele>666</ele>
        <time>2009-06-10T14:26:51Z</time>
      </trkpt>
      <trkpt lat="44.74168" lon="5.42733">
        <ele>627</ele>
        <time>2009-06-10T14:33:21Z</time>
      </trkpt>
      <trkpt lat="44.73807" lon="5.43085">
        <ele>692</ele>
        <time>2009-06-10T14:41:03Z</time>
      </trkpt>
      <trkpt lat="44.73607" lon="5.4329">
        <ele>685</ele>
        <time>2009-06-10T14:46:13Z</time>
      </trkpt>
      <trkpt lat="44.73358" lon="5.43122">
        <ele>785</ele>
        <time>2009-06-10T14:55:29Z</time>
      </trkpt>
      <trkpt lat="44.73315" lon="5.43135">
        <ele>778</ele>
        <time>2009-06-10T14:56:08Z</time>
      </trkpt>
      <trkpt lat="44.73146" lon="5.43627">
        <ele>856</ele>
        <time>2009-06-10T15:05:12Z</time>
      </trkpt>
      <trkpt lat="44.72291" lon="5.44349">
        <ele>719</ele>
        <time>2009-06-10T15:25:54Z</time>
      </trkpt>
      <trkpt lat="44.72029" lon="5.44326">
        <ele>708</ele>
        <time>2009-06-10T15:31:28Z</time>
      </trkpt>
      <trkpt lat="44.71578" lon="5.4327">
        <ele>585</ele>
        <time>2009-06-10T15:40:13Z</time>
      </trkpt>
      <trkpt lat="44.71266" lon="5.43078">
        <ele>549</ele>
        <time>2009-06-10T15:41:34Z</time>
      </trkpt>
      <trkpt lat="44.70592" lon="5.43005">
        <ele>562</ele>
        <time>2009-06-10T15:49:16Z</time>
      </trkpt>
      <trkpt lat="44.70547" lon="5.43325">
        <ele>599</ele>
        <time>2009-06-10T15:51:46Z</time>
      </trkpt>
      <trkpt lat="44.70358" lon="5.43506">
        <ele>613</ele>
        <time>2009-06-10T15:55:23Z</time>
      </trkpt>
      <trkpt lat="44.69838" lon="5.43754">
        <ele>594</ele>
        <time>2009-06-10T15:57:23Z</time>
      </trkpt>
      <trkpt lat="44.69561" lon="5.43014">
        <ele>535</ele>
        <time>2009-06-10T15:58:32Z</time>
      </trkpt>
      <trkpt lat="44.691" lon="5.43337">
        <ele>556</ele>
        <time>2009-06-10T16:04:03Z</time>
      </trkpt>
      <trkpt lat="44.69212" lon="5.44523">
        <ele>586</ele>
        <time>2009-06-10T16:12:26Z</time>
      </trkpt>
      <trkpt lat="44.68949" lon="5.45981">
        <ele>554</ele>
        <time>2009-06-10T16:15:38Z</time>
      </trkpt>
      <trkpt lat="44.69399" lon="5.45688">
        <ele>605</ele>
        <time>2009-06-10T16:27:28Z</time>
      </trkpt>
      <trkpt lat="44.69217" lon="5.47715">
        <ele>562</ele>
        <time>2009-06-10T16:37:37Z</time>
      </trkpt>
      <trkpt lat="44.69461" lon="5.48244">
        <ele>602</ele>
        <time>2009-06-10T16:46:14Z</time>
      </trkpt>
      <trkpt lat="44.69517" lon="5.48521">
        <ele>600</ele>
        <time>2009-06-10T16:50:27Z</time>
      </trkpt>
      <trkpt lat="44.6939" lon="5.48348">
        <ele>586</ele>
        <time>2009-06-10T16:53:03Z</time>
      </trkpt>
      <trkpt lat="44.69268" lon="5.48562">
        <ele>562</ele>
        <time>2009-06-11T07:09:08Z</time>
      </trkpt>
      <trkpt lat="44.68879" lon="5.4804">
        <ele>597</ele>
        <time>2009-06-11T07:15:13Z</time>
      </trkpt>
      <trkpt lat="44.68568" lon="5.47452">
        <ele>586</ele>
        <time>2009-06-11T07:18:25Z</time>
      </trkpt>
      <trkpt lat="44.68421" lon="5.47058">
        <ele>561</ele>
        <time>2009-06-11T07:27:24Z</time>
      </trkpt>
      <trkpt lat="44.67752" lon="5.47344">
        <ele>588</ele>
        <time>2009-06-11T07:32:03Z</time>
      </trkpt>
      <trkpt lat="44.67248" lon="5.48107">
        <ele>630</ele>
        <time>2009-06-11T07:43:22Z</time>
      </trkpt>
      <trkpt lat="44.67046" lon="5.49553">
        <ele>679</ele>
        <time>2009-06-11T07:53:15Z</time>
      </trkpt>
      <trkpt lat="44.66687" lon="5.49396">
        <ele>720</ele>
        <time>2009-06-11T08:08:46Z</time>
      </trkpt>
      <trkpt lat="44.66532" lon="5.4917">
        <ele>695</ele>
        <time>2009-06-11T08:10:07Z</time>
      </trkpt>
      <trkpt lat="44.65976" lon="5.49309">
        <ele>776</ele>
        <time>2009-06-11T08:18:15Z</time>
      </trkpt>
      <trkpt lat="44.65688" lon="5.49258">
        <ele>785</ele>
        <time>2009-06-11T08:21:18Z</time>
      </trkpt>
      <trkpt lat="44.6522" lon="5.49561">
        <ele>925</ele>
        <time>2009-06-11T08:35:10Z</time>
      </trkpt>
      <trkpt lat="44.64979" lon="5.50169">
        <ele>980</ele>
        <time>2009-06-11T08:49:14Z</time>
      </trkpt>
      <trkpt lat="44.65375" lon="5.50332">
        <ele>1056</ele>
        <time>2009-06-11T08:55:41Z</time>
      </trkpt>
      <trkpt lat="44.65972" lon="5.50248">
        <ele>1081</ele>
        <time>2009-06-11T09:01:50Z</time>
      </trkpt>
      <trkpt lat="44.66127" lon="5.50639">
        <ele>1039</ele>
        <time>2009-06-11T09:14:45Z</time>
      </trkpt>
      <trkpt lat="44.64529" lon="5.51712">
        <ele>1180</ele>
        <time>2009-06-11T09:32:17Z</time>
      </trkpt>
      <trkpt lat="44.64257" lon="5.52131">
        <ele>1214</ele>
        <time>2009-06-11T09:42:55Z</time>
      </trkpt>
      <trkpt lat="44.63965" lon="5.52217">
        <ele>1210</ele>
        <time>2009-06-11T09:44:58Z</time>
      </trkpt>
      <trkpt lat="44.63942" lon="5.52225">
        <ele>1181</ele>
        <time>2009-06-11T09:45:01Z</time>
      </trkpt>
      <trkpt lat="44.63798" lon="5.51762">
        <ele>1209</ele>
        <time>2009-06-11T09:46:49Z</time>
      </trkpt>
      <trkpt lat="44.6374" lon="5.5121">
        <ele>1160</ele>
        <time>2009-06-11T09:48:10Z</time>
      </trkpt>
      <trkpt lat="44.6326" lon="5.5125">
        <ele>1137</ele>
        <time>2009-06-11T09:49:46Z</time>
      </trkpt>
      <trkpt lat="44.6332" lon="5.508">
        <ele>1179</ele>
        <time>2009-06-11T09:55:20Z</time>
      </trkpt>
      <trkpt lat="44.63321" lon="5.49969">
        <ele>1131</ele>
        <time>2009-06-11T09:57:47Z</time>
      </trkpt>
      <trkpt lat="44.63194" lon="5.5012">
        <ele>1123</ele>
        <time>2009-06-11T09:58:17Z</time>
      </trkpt>
      <trkpt lat="44.63034" lon="5.50287">
        <ele>1103</ele>
        <time>2009-06-11T09:58:41Z</time>
      </trkpt>
      <trkpt lat="44.63088" lon="5.50176">
        <ele>1095</ele>
        <time>2009-06-11T09:59:05Z</time>
      </trkpt>
      <trkpt lat="44.63113" lon="5.49698">
        <ele>1047</ele>
        <time>2009-06-11T09:59:53Z</time>
      </trkpt>
      <trkpt lat="44.62929" lon="5.49852">
        <ele>1041</ele>
        <time>2009-06-11T10:07:07Z</time>
      </trkpt>
      <trkpt lat="44.62833" lon="5.4957">
        <ele>1035</ele>
        <time>2009-06-11T10:08:49Z</time>
      </trkpt>
      <trkpt lat="44.62973" lon="5.49363">
        <ele>1013</ele>
        <time>2009-06-11T10:10:47Z</time>
      </trkpt>
      <trkpt lat="44.6278" lon="5.48671">
        <ele>1036</ele>
        <time>2009-06-11T10:17:19Z</time>
      </trkpt>
      <trkpt lat="44.62617" lon="5.47402">
        <ele>890</ele>
        <time>2009-06-11T10:32:34Z</time>
      </trkpt>
      <trkpt lat="44.62816" lon="5.47009">
        <ele>870</ele>
        <time>2009-06-11T10:34:10Z</time>
      </trkpt>
      <trkpt lat="44.62508" lon="5.46313">
        <ele>886</ele>
        <time>2009-06-11T10:42:21Z</time>
      </trkpt>
      <trkpt lat="44.62381" lon="5.45997">
        <ele>850</ele>
        <time>2009-06-11T10:45:52Z</time>
      </trkpt>
      <trkpt lat="44.62361" lon="5.46368">
        <ele>832</ele>
        <time>2009-06-11T10:47:25Z</time>
      </trkpt>
      <trkpt lat="44.62165" lon="5.46309">
        <ele>786</ele>
        <time>2009-06-11T10:48:01Z</time>
      </trkpt>
      <trkpt lat="44.62325" lon="5.46738">
        <ele>731</ele>
        <time>2009-06-11T10:53:00Z</time>
      </trkpt>
      <trkpt lat="44.61863" lon="5.46619">
        <ele>759</ele>
        <time>2009-06-11T10:55:28Z</time>
      </trkpt>
      <trkpt lat="44.6176" lon="5.46981">
        <ele>759</ele>
        <time>2009-06-11T10:56:40Z</time>
      </trkpt>
      <trkpt lat="44.61832" lon="5.47346">
        <ele>744</ele>
        <time>2009-06-11T10:57:43Z</time>
      </trkpt>
      <trkpt lat="44.61437" lon="5.47517">
        <ele>801</ele>
        <time>2009-06-11T11:02:20Z</time>
      </trkpt>
      <trkpt lat="44.61432" lon="5.47517">
        <ele>795</ele>
        <time>2009-06-11T11:02:59Z</time>
      </trkpt>
      <trkpt lat="44.61581" lon="5.45127">
        <ele>582</ele>
        <time>2009-06-11T13:02:55Z</time>
      </trkpt>
      <trkpt lat="44.61337" lon="5.44435">
        <ele>553</ele>
        <time>2009-06-11T13:07:04Z</time>
      </trkpt>
      <trkpt lat="44.61107" lon="5.44517">
        <ele>617</ele>
        <time>2009-06-11T13:10:01Z</time>
      </trkpt>
      <trkpt lat="44.6097" lon="5.44898">
        <ele>546</ele>
        <time>2009-06-11T13:11:13Z</time>
      </trkpt>
      <trkpt lat="44.60342" lon="5.4561">
        <ele>668</ele>
        <time>2009-06-11T13:21:09Z</time>
      </trkpt>
      <trkpt lat="44.60234" lon="5.45629">
        <ele>621</ele>
        <time>2009-06-11T13:24:34Z</time>
      </trkpt>
      <trkpt lat="44.60061" lon="5.46052">
        <ele>610</ele>
        <time>2009-06-11T13:42:26Z</time>
      </trkpt>
      <trkpt lat="44.60281" lon="5.46334">
        <ele>650</ele>
        <time>2009-06-11T13:51:01Z</time>
      </trkpt>
      <trkpt lat="44.60231" lon="5.46518">
        <ele>631</ele>
        <time>2009-06-11T13:52:31Z</time>
      </trkpt>
      <trkpt lat="44.59661" lon="5.46642">
        <ele>673</ele>
        <time>2009-06-11T14:00:18Z</time>
      </trkpt>
      <trkpt lat="44.59689" lon="5.46439">
        <ele>717</ele>
        <time>2009-06-11T14:03:24Z</time>
      </trkpt>
      <trkpt lat="44.59527" lon="5.45939">
        <ele>712</ele>
        <time>2009-06-11T14:05:57Z</time>
      </trkpt>
      <trkpt lat="44.59127" lon="5.46251">
        <ele>738</ele>
        <time>2009-06-11T14:12:27Z</time>
      </trkpt>
      <trkpt lat="44.58949" lon="5.46498">
        <ele>709</ele>
        <time>2009-06-11T14:13:39Z</time>
      </trkpt>
      <trkpt lat="44.58552" lon="5.46447">
        <ele>716</ele>
        <time>2009-06-11T14:16:37Z</time>
      </trkpt>
      <trkpt lat="44.58653" lon="5.46641">
        <ele>684</ele>
        <time>2009-06-11T14:17:18Z</time>
      </trkpt>
      <trkpt lat="44.58842" lon="5.47127">
        <ele>660</ele>
        <time>2009-06-11T14:18:07Z</time>
      </trkpt>
      <trkpt lat="44.57747" lon="5.48232">
        <ele>645</ele>
        <time>2009-06-11T14:22:22Z</time>
      </trkpt>
      <trkpt lat="44.57075" lon="5.47779">
        <ele>679</ele>
        <time>2009-06-11T14:29:10Z</time>
      </trkpt>
      <trkpt lat="44.57038" lon="5.47723">
        <ele>646</ele>
        <time>2009-06-11T14:31:21Z</time>
      </trkpt>
      <trkpt lat="44.56453" lon="5.47683">
        <ele>664</ele>
        <time>2009-06-11T14:35:34Z</time>
      </trkpt>
      <trkpt lat="44.56371" lon="5.47892">
        <ele>679</ele>
        <time>2009-06-11T14:39:16Z</time>
      </trkpt>
      <trkpt lat="44.56509" lon="5.47853">
        <ele>709</ele>
        <time>2009-06-11T14:40:58Z</time>
      </trkpt>
      <trkpt lat="44.56732" lon="5.48427">
        <ele>809</ele>
        <time>2009-06-11T14:54:56Z</time>
      </trkpt>
      <trkpt lat="44.56729" lon="5.49199">
        <ele>840</ele>
        <time>2009-06-11T15:00:53Z</time>
      </trkpt>
      <trkpt lat="44.55687" lon="5.49524">
        <ele>926</ele>
        <time>2009-06-11T15:12:18Z</time>
      </trkpt>
      <trkpt lat="44.5534" lon="5.50241">
        <ele>1019</ele>
        <time>2009-06-11T15:22:51Z</time>
      </trkpt>
      <trkpt lat="44.54129" lon="5.5058">
        <ele>986</ele>
        <time>2009-06-11T13:41:21Z</time>
      </trkpt>
      <trkpt lat="44.53914" lon="5.50331">
        <ele>924</ele>
        <time>2009-06-11T13:42:54Z</time>
      </trkpt>
      <trkpt lat="44.53705" lon="5.50528">
        <ele>941</ele>
        <time>2009-06-11T13:46:39Z</time>
      </trkpt>
      <trkpt lat="44.53479" lon="5.50926">
        <ele>896</ele>
        <time>2009-06-11T13:59:49Z</time>
      </trkpt>
      <trkpt lat="44.53614" lon="5.50895">
        <ele>905</ele>
        <time>2009-06-11T14:02:58Z</time>
      </trkpt>
      <trkpt lat="44.53849" lon="5.51222">
        <ele>871</ele>
        <time>2009-06-11T14:14:18Z</time>
      </trkpt>
      <trkpt lat="44.5407" lon="5.52306">
        <ele>942</ele>
        <time>2009-06-11T14:26:45Z</time>
      </trkpt>
      <trkpt lat="44.53854" lon="5.52996">
        <ele>983</ele>
        <time>2009-06-11T14:32:53Z</time>
      </trkpt>
      <trkpt lat="44.53926" lon="5.53345">
        <ele>953</ele>
        <time>2009-06-11T14:34:08Z</time>
      </trkpt>
      <trkpt lat="44.53735" lon="5.53233">
        <ele>927</ele>
        <time>2009-06-11T14:34:50Z</time>
      </trkpt>
      <trkpt lat="44.53556" lon="5.53989">
        <ele>971</ele>
        <time>2009-06-11T14:40:56Z</time>
      </trkpt>
      <trkpt lat="44.5322" lon="5.54136">
        <ele>1042</ele>
        <time>2009-06-11T14:50:16Z</time>
      </trkpt>
      <trkpt lat="44.53065" lon="5.54466">
        <ele>1067</ele>
        <time>2009-06-11T14:57:02Z</time>
      </trkpt>
      <trkpt lat="44.52853" lon="5.54955">
        <ele>1090</ele>
        <time>2009-06-11T15:05:34Z</time>
      </trkpt>
      <trkpt lat="44.52529" lon="5.54707">
        <ele>1112</ele>
        <time>2009-06-11T15:11:39Z</time>
      </trkpt>
      <trkpt lat="44.51761" lon="5.54181">
        <ele>908</ele>
        <time>2009-06-11T15:32:12Z</time>
      </trkpt>
      <trkpt lat="44.51195" lon="5.55704">
        <ele>870</ele>
        <time>2009-06-11T15:37:48Z</time>
      </trkpt>
      <trkpt lat="44.50597" lon="5.56526">
        <ele>826</ele>
        <time>2009-06-11T15:41:37Z</time>
      </trkpt>
      <trkpt lat="44.50298" lon="5.55031">
        <ele>903</ele>
        <time>2009-07-08T07:55:33Z</time>
      </trkpt>
      <trkpt lat="44.50269" lon="5.54596">
        <ele>934</ele>
        <time>2009-07-08T07:56:15Z</time>
      </trkpt>
      <trkpt lat="44.50448" lon="5.54978">
        <ele>956</ele>
        <time>2009-07-08T07:57:04Z</time>
      </trkpt>
      <trkpt lat="44.50446" lon="5.5199">
        <ele>1089</ele>
        <time>2009-07-08T08:04:15Z</time>
      </trkpt>
      <trkpt lat="44.4978" lon="5.51732">
        <ele>1137</ele>
        <time>2009-07-08T08:12:02Z</time>
      </trkpt>
      <trkpt lat="44.49762" lon="5.512">
        <ele>1197</ele>
        <time>2009-07-08T08:23:05Z</time>
      </trkpt>
      <trkpt lat="44.4944" lon="5.50633">
        <ele>1264</ele>
        <time>2009-07-08T08:31:42Z</time>
      </trkpt>
      <trkpt lat="44.49198" lon="5.50512">
        <ele>1267</ele>
        <time>2009-07-08T08:37:22Z</time>
      </trkpt>
      <trkpt lat="44.49028" lon="5.50238">
        <ele>1201</ele>
        <time>2009-07-08T08:38:20Z</time>
      </trkpt>
      <trkpt lat="44.4852" lon="5.50985">
        <ele>1025</ele>
        <time>2009-07-08T09:16:29Z</time>
      </trkpt>
      <trkpt lat="44.48319" lon="5.49602">
        <ele>979</ele>
        <time>2009-07-08T09:24:42Z</time>
      </trkpt>
      <trkpt lat="44.48276" lon="5.51136">
        <ele>916</ele>
        <time>2009-07-08T09:30:38Z</time>
      </trkpt>
      <trkpt lat="44.47858" lon="5.51697">
        <ele>815</ele>
        <time>2009-07-08T09:35:04Z</time>
      </trkpt>
      <trkpt lat="44.47635" lon="5.50911">
        <ele>754</ele>
        <time>2009-07-08T09:36:13Z</time>
      </trkpt>
      <trkpt lat="44.4692" lon="5.50911">
        <ele>698</ele>
        <time>2009-07-08T09:37:34Z</time>
      </trkpt>
      <trkpt lat="44.4641" lon="5.52173">
        <ele>720</ele>
        <time>2009-07-08T09:47:25Z</time>
      </trkpt>
      <trkpt lat="44.45194" lon="5.5358">
        <ele>752</ele>
        <time>2009-07-08T09:54:33Z</time>
      </trkpt>
      <trkpt lat="44.45042" lon="5.54279">
        <ele>817</ele>
        <time>2009-07-08T10:00:37Z</time>
      </trkpt>
      <trkpt lat="44.44551" lon="5.55101">
        <ele>844</ele>
        <time>2009-07-08T08:42:21Z</time>
      </trkpt>
      <trkpt lat="44.44358" lon="5.5587">
        <ele>839</ele>
        <time>2009-07-08T08:47:16Z</time>
      </trkpt>
      <trkpt lat="44.43957" lon="5.55765">
        <ele>872.3</ele>
      </trkpt>
      <trkpt lat="44.43953" lon="5.5607">
        <ele>906</ele>
        <time>2009-07-08T09:09:47Z</time>
      </trkpt>
      <trkpt lat="44.43834" lon="5.55992">
        <ele>949</ele>
        <time>2009-07-08T09:11:57Z</time>
      </trkpt>
      <trkpt lat="44.43592" lon="5.56384">
        <ele>955</ele>
        <time>2009-07-08T09:18:20Z</time>
      </trkpt>
      <trkpt lat="44.43348" lon="5.55798">
        <ele>1008</ele>
        <time>2009-07-08T09:23:00Z</time>
      </trkpt>
      <trkpt lat="44.43216" lon="5.57025">
        <ele>1142</ele>
        <time>2009-07-08T09:37:47Z</time>
      </trkpt>
      <trkpt lat="44.42741" lon="5.56854">
        <ele>1079</ele>
        <time>2009-07-08T09:42:26Z</time>
      </trkpt>
      <trkpt lat="44.42388" lon="5.563">
        <ele>957</ele>
        <time>2009-07-08T09:44:16Z</time>
      </trkpt>
      <trkpt lat="44.4209" lon="5.56582">
        <ele>925</ele>
        <time>2009-07-08T09:47:29Z</time>
      </trkpt>
      <trkpt lat="44.41833" lon="5.55885">
        <ele>905</ele>
        <time>2009-07-08T09:51:47Z</time>
      </trkpt>
      <trkpt lat="44.41376" lon="5.56027">
        <ele>868</ele>
        <time>2009-07-08T09:52:47Z</time>
      </trkpt>
      <trkpt lat="44.41573" lon="5.55618">
        <ele>855</ele>
        <time>2009-07-08T09:55:20Z</time>
      </trkpt>
      <trkpt lat="44.41398" lon="5.55435">
        <ele>864</ele>
        <time>2009-07-08T09:57:55Z</time>
      </trkpt>
      <trkpt lat="44.41262" lon="5.55764">
        <ele>795</ele>
        <time>2009-07-08T10:04:00Z</time>
      </trkpt>
      <trkpt lat="44.41" lon="5.5575">
        <ele>807</ele>
        <time>2009-07-08T10:07:36Z</time>
      </trkpt>
      <trkpt lat="44.40994" lon="5.55752">
        <ele>805</ele>
        <time>2009-07-08T10:07:50Z</time>
      </trkpt>
      <trkpt lat="44.40962" lon="5.55988">
        <ele>823</ele>
        <time>2009-07-08T10:09:34Z</time>
      </trkpt>
      <trkpt lat="44.40791" lon="5.55703">
        <ele>856</ele>
        <time>2009-07-08T10:12:14Z</time>
      </trkpt>
      <trkpt lat="44.40645" lon="5.55989">
        <ele>895</ele>
        <time>2009-07-08T10:16:24Z</time>
      </trkpt>
      <trkpt lat="44.39981" lon="5.56169">
        <ele>961</ele>
        <time>2009-07-08T10:27:20Z</time>
      </trkpt>
      <trkpt lat="44.39975" lon="5.56173">
        <ele>958</ele>
        <time>2009-07-08T10:27:30Z</time>
      </trkpt>
      <trkpt lat="44.39958" lon="5.59596">
        <ele>1083</ele>
        <time>2009-07-08T11:11:26Z</time>
      </trkpt>
      <trkpt lat="44.39831" lon="5.60424">
        <ele>1042</ele>
        <time>2009-07-08T11:20:47Z</time>
      </trkpt>
      <trkpt lat="44.39986" lon="5.60965">
        <ele>1022</ele>
        <time>2009-07-08T11:28:28Z</time>
      </trkpt>
      <trkpt lat="44.39634" lon="5.61986">
        <ele>1122</ele>
        <time>2009-07-08T11:41:52Z</time>
      </trkpt>
      <trkpt lat="44.39262" lon="5.6256">
        <ele>1159</ele>
        <time>2009-07-08T11:47:52Z</time>
      </trkpt>
      <trkpt lat="44.39271" lon="5.63425">
        <ele>1171</ele>
        <time>2009-07-08T11:55:40Z</time>
      </trkpt>
      <trkpt lat="44.39054" lon="5.6389">
        <ele>1210</ele>
        <time>2009-07-08T12:03:10Z</time>
      </trkpt>
      <trkpt lat="44.389" lon="5.63854">
        <ele>1214</ele>
        <time>2009-07-08T12:03:46Z</time>
      </trkpt>
      <trkpt lat="44.38329" lon="5.6368">
        <ele>1180</ele>
        <time>2009-07-08T12:07:34Z</time>
      </trkpt>
      <trkpt lat="44.38767" lon="5.62791">
        <ele>1059</ele>
        <time>2009-07-08T12:15:54Z</time>
      </trkpt>
      <trkpt lat="44.38451" lon="5.62843">
        <ele>1081</ele>
        <time>2009-07-08T12:19:47Z</time>
      </trkpt>
      <trkpt lat="44.3859" lon="5.62666">
        <ele>1027</ele>
        <time>2009-07-08T12:24:34Z</time>
      </trkpt>
      <trkpt lat="44.38423" lon="5.62552">
        <ele>1011</ele>
        <time>2009-07-08T12:28:23Z</time>
      </trkpt>
      <trkpt lat="44.37979" lon="5.62628">
        <ele>1027</ele>
        <time>2009-07-08T12:34:36Z</time>
      </trkpt>
      <trkpt lat="44.3767" lon="5.62592">
        <ele>998</ele>
        <time>2009-07-08T12:36:34Z</time>
      </trkpt>
      <trkpt lat="44.37584" lon="5.61896">
        <ele>898</ele>
        <time>2009-07-08T12:40:57Z</time>
      </trkpt>
      <trkpt lat="44.37733" lon="5.61904">
        <ele>860</ele>
        <time>2009-07-08T12:41:30Z</time>
      </trkpt>
      <trkpt lat="44.37602" lon="5.61669">
        <ele>918</ele>
        <time>2009-07-08T12:45:02Z</time>
      </trkpt>
      <trkpt lat="44.37472" lon="5.61583">
        <ele>954</ele>
        <time>2009-07-08T12:51:33Z</time>
      </trkpt>
      <trkpt lat="44.37248" lon="5.61605">
        <ele>919</ele>
        <time>2009-07-08T12:54:48Z</time>
      </trkpt>
      <trkpt lat="44.37274" lon="5.61563">
        <ele>913</ele>
        <time>2009-07-08T12:54:57Z</time>
      </trkpt>
      <trkpt lat="44.36324" lon="5.61862">
        <ele>925</ele>
        <time>2009-07-08T13:08:43Z</time>
      </trkpt>
      <trkpt lat="44.35997" lon="5.60549">
        <ele>799</ele>
        <time>2009-07-08T11:14:16Z</time>
      </trkpt>
      <trkpt lat="44.35933" lon="5.61335">
        <ele>786</ele>
        <time>2009-07-08T11:19:35Z</time>
      </trkpt>
      <trkpt lat="44.35528" lon="5.61757">
        <ele>797</ele>
        <time>2009-07-08T11:24:11Z</time>
      </trkpt>
      <trkpt lat="44.35424" lon="5.61544">
        <ele>839</ele>
        <time>2009-07-08T11:27:17Z</time>
      </trkpt>
      <trkpt lat="44.35345" lon="5.6193">
        <ele>875</ele>
        <time>2009-07-08T11:33:41Z</time>
      </trkpt>
      <trkpt lat="44.34942" lon="5.62127">
        <ele>948</ele>
        <time>2009-07-08T11:45:30Z</time>
      </trkpt>
      <trkpt lat="44.34606" lon="5.62626">
        <ele>1048</ele>
        <time>2009-07-08T12:01:04Z</time>
      </trkpt>
      <trkpt lat="44.34041" lon="5.6334">
        <ele>1173</ele>
        <time>2009-07-08T12:19:56Z</time>
      </trkpt>
      <trkpt lat="44.34022" lon="5.63359">
        <ele>1175</ele>
        <time>2009-07-08T12:20:14Z</time>
      </trkpt>
      <trkpt lat="44.3383" lon="5.64174">
        <ele>1138</ele>
        <time>2009-07-08T12:36:37Z</time>
      </trkpt>
      <trkpt lat="44.33699" lon="5.6465">
        <ele>1068</ele>
        <time>2009-07-08T12:37:59Z</time>
      </trkpt>
      <trkpt lat="44.33936" lon="5.64636">
        <ele>1081.7</ele>
      </trkpt>
      <trkpt lat="44.3404" lon="5.6514">
        <ele>1082.4</ele>
      </trkpt>
      <trkpt lat="44.32948" lon="5.65145">
        <ele>912</ele>
        <time>2009-07-08T12:52:50Z</time>
      </trkpt>
      <trkpt lat="44.32758" lon="5.65479">
        <ele>899</ele>
        <time>2009-07-08T12:59:37Z</time>
      </trkpt>
      <trkpt lat="44.32366" lon="5.65567">
        <ele>846</ele>
        <time>2009-07-08T13:11:47Z</time>
      </trkpt>
      <trkpt lat="44.31797" lon="5.65282">
        <ele>739</ele>
        <time>2009-07-08T13:17:39Z</time>
      </trkpt>
      <trkpt lat="44.31342" lon="5.69529">
        <ele>721</ele>
        <time>2009-07-28T06:49:47Z</time>
      </trkpt>
      <trkpt lat="44.31579" lon="5.71223">
        <ele>669</ele>
        <time>2009-07-28T06:53:50Z</time>
      </trkpt>
      <trkpt lat="44.31136" lon="5.72414">
        <ele>684</ele>
        <time>2009-07-28T06:59:33Z</time>
      </trkpt>
      <trkpt lat="44.30504" lon="5.7218">
        <ele>740</ele>
        <time>2009-07-28T07:05:44Z</time>
      </trkpt>
      <trkpt lat="44.30071" lon="5.73279">
        <ele>849</ele>
        <time>2009-07-28T07:20:49Z</time>
      </trkpt>
      <trkpt lat="44.29994" lon="5.73488">
        <ele>851</ele>
        <time>2009-07-28T07:25:43Z</time>
      </trkpt>
      <trkpt lat="44.29586" lon="5.73033">
        <ele>912</ele>
        <time>2009-07-28T07:35:22Z</time>
      </trkpt>
      <trkpt lat="44.29678" lon="5.73663">
        <ele>969</ele>
        <time>2009-07-28T07:41:16Z</time>
      </trkpt>
      <trkpt lat="44.2956" lon="5.73509">
        <ele>1032</ele>
        <time>2009-07-28T07:43:53Z</time>
      </trkpt>
      <trkpt lat="44.29484" lon="5.73493">
        <ele>996</ele>
        <time>2009-07-28T07:46:47Z</time>
      </trkpt>
      <trkpt lat="44.29318" lon="5.72976">
        <ele>1064</ele>
        <time>2009-07-28T07:50:50Z</time>
      </trkpt>
      <trkpt lat="44.28858" lon="5.715">
        <ele>1079</ele>
        <time>2009-07-28T08:03:57Z</time>
      </trkpt>
      <trkpt lat="44.28761" lon="5.69692">
        <ele>1073</ele>
        <time>2009-07-28T08:27:26Z</time>
      </trkpt>
      <trkpt lat="44.28574" lon="5.69481">
        <ele>1102</ele>
        <time>2009-07-28T08:29:02Z</time>
      </trkpt>
      <trkpt lat="44.28598" lon="5.69162">
        <ele>1143</ele>
        <time>2009-07-28T08:30:26Z</time>
      </trkpt>
      <trkpt lat="44.28543" lon="5.6886">
        <ele>1126</ele>
        <time>2009-07-28T08:34:22Z</time>
      </trkpt>
      <trkpt lat="44.27627" lon="5.67344">
        <ele>1143</ele>
        <time>2009-07-28T08:56:01Z</time>
      </trkpt>
      <trkpt lat="44.27398" lon="5.65962">
        <ele>1195.6</ele>
      </trkpt>
      <trkpt lat="44.27519" lon="5.65625">
        <ele>1220.8</ele>
      </trkpt>
      <trkpt lat="44.27048" lon="5.65507">
        <ele>1301</ele>
        <time>2009-07-28T09:50:49Z</time>
      </trkpt>
      <trkpt lat="44.26854" lon="5.64828">
        <ele>1355</ele>
        <time>2009-07-28T09:57:38Z</time>
      </trkpt>
      <trkpt lat="44.2674" lon="5.64234">
        <ele>1354</ele>
        <time>2009-07-28T10:02:17Z</time>
      </trkpt>
      <trkpt lat="44.26423" lon="5.63613">
        <ele>1266</ele>
        <time>2009-07-28T10:07:11Z</time>
      </trkpt>
      <trkpt lat="44.26238" lon="5.62198">
        <ele>1175</ele>
        <time>2009-07-28T10:12:14Z</time>
      </trkpt>
      <trkpt lat="44.26073" lon="5.62147">
        <ele>1184</ele>
        <time>2009-07-28T10:48:38Z</time>
      </trkpt>
      <trkpt lat="44.26052" lon="5.62156">
        <ele>1172</ele>
        <time>2009-07-28T10:49:20Z</time>
      </trkpt>
      <trkpt lat="44.2587" lon="5.6257">
        <ele>1166</ele>
        <time>2009-07-28T10:58:02Z</time>
      </trkpt>
      <trkpt lat="44.25709" lon="5.62597">
        <ele>1146</ele>
        <time>2009-07-28T10:58:56Z</time>
      </trkpt>
      <trkpt lat="44.25791" lon="5.63511">
        <ele>1051</ele>
        <time>2009-07-28T11:01:18Z</time>
      </trkpt>
      <trkpt lat="44.25664" lon="5.63401">
        <ele>995</ele>
        <time>2009-07-28T11:03:00Z</time>
      </trkpt>
      <trkpt lat="44.25781" lon="5.64022">
        <ele>950</ele>
        <time>2009-07-28T11:04:15Z</time>
      </trkpt>
      <trkpt lat="44.25649" lon="5.63759">
        <ele>923</ele>
        <time>2009-07-28T11:04:54Z</time>
      </trkpt>
      <trkpt lat="44.25504" lon="5.63237">
        <ele>877</ele>
        <time>2009-07-28T11:05:42Z</time>
      </trkpt>
      <trkpt lat="44.25267" lon="5.63045">
        <ele>846</ele>
        <time>2009-07-28T11:06:27Z</time>
      </trkpt>
      <trkpt lat="44.25382" lon="5.64049">
        <ele>804</ele>
        <time>2009-07-28T11:11:46Z</time>
      </trkpt>
      <trkpt lat="44.26248" lon="5.65895">
        <ele>896.8</ele>
      </trkpt>
      <trkpt lat="44.26592" lon="5.6618">
        <ele>953</ele>
        <time>2009-07-28T11:49:49Z</time>
      </trkpt>
      <trkpt lat="44.26926" lon="5.6683">
        <ele>1023</ele>
        <time>2009-07-28T12:01:02Z</time>
      </trkpt>
      <trkpt lat="44.2736" lon="5.6779">
        <ele>1016</ele>
        <time>2009-07-28T12:08:13Z</time>
      </trkpt>
      <trkpt lat="44.27512" lon="5.69392">
        <ele>991</ele>
        <time>2009-07-28T12:13:59Z</time>
      </trkpt>
      <trkpt lat="44.27742" lon="5.70574">
        <ele>946</ele>
        <time>2009-07-28T12:17:43Z</time>
      </trkpt>
      <trkpt lat="44.27517" lon="5.71294">
        <ele>925</ele>
        <time>2009-07-28T12:25:07Z</time>
      </trkpt>
      <trkpt lat="44.27253" lon="5.71754">
        <ele>875</ele>
        <time>2009-07-28T12:26:25Z</time>
      </trkpt>
      <trkpt lat="44.26884" lon="5.71941">
        <ele>801</ele>
        <time>2009-07-28T12:28:16Z</time>
      </trkpt>
      <trkpt lat="44.26806" lon="5.72576">
        <ele>791</ele>
        <time>2009-07-28T12:31:10Z</time>
      </trkpt>
      <trkpt lat="44.26576" lon="5.72592">
        <ele>728</ele>
        <time>2009-07-28T12:32:19Z</time>
      </trkpt>
      <trkpt lat="44.26454" lon="5.73117">
        <ele>736</ele>
        <time>2009-07-28T12:35:35Z</time>
      </trkpt>
      <trkpt lat="44.26611" lon="5.73022">
        <ele>713</ele>
        <time>2009-07-28T12:36:05Z</time>
      </trkpt>
      <trkpt lat="44.26449" lon="5.73212">
        <ele>689</ele>
        <time>2009-07-28T12:36:56Z</time>
      </trkpt>
      <trkpt lat="44.2657" lon="5.73276">
        <ele>676</ele>
        <time>2009-07-28T12:38:45Z</time>
      </trkpt>
      <trkpt lat="44.26164" lon="5.73499">
        <ele>647</ele>
        <time>2009-07-28T07:52:43Z</time>
      </trkpt>
      <trkpt lat="44.26174" lon="5.74083">
        <ele>644</ele>
        <time>2009-07-28T07:56:33Z</time>
      </trkpt>
      <trkpt lat="44.25416" lon="5.7511">
        <ele>725</ele>
        <time>2009-07-28T08:10:10Z</time>
      </trkpt>
      <trkpt lat="44.25422" lon="5.75857">
        <ele>757</ele>
        <time>2009-07-28T08:13:29Z</time>
      </trkpt>
      <trkpt lat="44.25623" lon="5.76141">
        <ele>764</ele>
        <time>2009-07-28T08:15:07Z</time>
      </trkpt>
      <trkpt lat="44.24836" lon="5.76088">
        <ele>883</ele>
        <time>2009-07-28T08:27:58Z</time>
      </trkpt>
      <trkpt lat="44.24797" lon="5.76469">
        <ele>933</ele>
        <time>2009-07-28T08:32:22Z</time>
      </trkpt>
      <trkpt lat="44.24635" lon="5.76501">
        <ele>963</ele>
        <time>2009-07-28T08:35:08Z</time>
      </trkpt>
      <trkpt lat="44.24469" lon="5.76698">
        <ele>1008</ele>
        <time>2009-07-28T08:39:10Z</time>
      </trkpt>
      <trkpt lat="44.24178" lon="5.7741">
        <ele>1122</ele>
        <time>2009-07-28T08:52:31Z</time>
      </trkpt>
      <trkpt lat="44.23946" lon="5.7709">
        <ele>1221</ele>
        <time>2009-07-28T09:00:10Z</time>
      </trkpt>
      <trkpt lat="44.23779" lon="5.7683">
        <ele>1250</ele>
        <time>2009-07-28T09:06:20Z</time>
      </trkpt>
      <trkpt lat="44.23644" lon="5.76802">
        <ele>1285</ele>
        <time>2009-07-28T09:12:50Z</time>
      </trkpt>
      <trkpt lat="44.23525" lon="5.77292">
        <ele>1351</ele>
        <time>2009-07-28T09:19:53Z</time>
      </trkpt>
      <trkpt lat="44.23564" lon="5.78064">
        <ele>1387</ele>
        <time>2009-07-28T09:25:54Z</time>
      </trkpt>
      <trkpt lat="44.23876" lon="5.78858">
        <ele>1377</ele>
        <time>2009-07-28T09:31:12Z</time>
      </trkpt>
      <trkpt lat="44.24918" lon="5.7915">
        <ele>1292</ele>
        <time>2009-07-28T10:14:38Z</time>
      </trkpt>
      <trkpt lat="44.26056" lon="5.79066">
        <ele>1126</ele>
        <time>2009-07-28T10:18:28Z</time>
      </trkpt>
      <trkpt lat="44.26501" lon="5.78161">
        <ele>966</ele>
        <time>2009-07-28T10:26:00Z</time>
      </trkpt>
      <trkpt lat="44.26743" lon="5.78938">
        <ele>883</ele>
        <time>2009-07-28T10:30:01Z</time>
      </trkpt>
      <trkpt lat="44.27309" lon="5.79684">
        <ele>758</ele>
        <time>2009-07-28T10:35:11Z</time>
      </trkpt>
      <trkpt lat="44.27244" lon="5.79059">
        <ele>743</ele>
        <time>2009-07-28T10:40:22Z</time>
      </trkpt>
      <trkpt lat="44.27518" lon="5.79054">
        <ele>695</ele>
        <time>2009-07-28T10:44:28Z</time>
      </trkpt>
      <trkpt lat="44.27765" lon="5.792">
        <ele>589</ele>
        <time>2009-07-28T10:49:21Z</time>
      </trkpt>
      <trkpt lat="44.27373" lon="5.80047">
        <ele>624</ele>
        <time>2009-07-28T10:59:51Z</time>
      </trkpt>
      <trkpt lat="44.26393" lon="5.80572">
        <ele>620</ele>
        <time>2009-07-28T11:15:23Z</time>
      </trkpt>
      <trkpt lat="44.26329" lon="5.80956">
        <ele>642</ele>
        <time>2009-07-28T11:16:43Z</time>
      </trkpt>
      <trkpt lat="44.26107" lon="5.81717">
        <ele>600</ele>
        <time>2009-07-28T11:19:10Z</time>
      </trkpt>
      <trkpt lat="44.25957" lon="5.82034">
        <ele>577</ele>
        <time>2009-07-28T11:19:50Z</time>
      </trkpt>
      <trkpt lat="44.26" lon="5.8221">
        <ele>560</ele>
        <time>2009-07-28T11:20:04Z</time>
      </trkpt>
      <trkpt lat="44.25141" lon="5.83398">
        <ele>536</ele>
        <time>2009-07-28T11:24:48Z</time>
      </trkpt>
      <trkpt lat="44.25109" lon="5.83442">
        <ele>530</ele>
        <time>2009-07-28T11:24:58Z</time>
      </trkpt>
      <trkpt lat="44.24967" lon="5.83999">
        <ele>540</ele>
        <time>2009-07-28T11:26:29Z</time>
      </trkpt>
      <trkpt lat="44.24629" lon="5.84275">
        <ele>540</ele>
        <time>2009-07-28T11:27:47Z</time>
      </trkpt>
      <trkpt lat="44.24449" lon="5.8381">
        <ele>577</ele>
        <time>2009-07-28T11:31:58Z</time>
      </trkpt>
      <trkpt lat="44.24265" lon="5.84145">
        <ele>549</ele>
        <time>2009-07-28T11:33:00Z</time>
      </trkpt>
      <trkpt lat="44.23769" lon="5.84312">
        <ele>542</ele>
        <time>2009-07-28T11:37:34Z</time>
      </trkpt>
      <trkpt lat="44.23613" lon="5.84605">
        <ele>535</ele>
        <time>2009-07-28T11:38:32Z</time>
      </trkpt>
      <trkpt lat="44.23399" lon="5.84558">
        <ele>544</ele>
        <time>2009-07-28T11:41:17Z</time>
      </trkpt>
      <trkpt lat="44.23315" lon="5.854">
        <ele>516</ele>
        <time>2009-07-28T11:45:09Z</time>
      </trkpt>
      <trkpt lat="44.23114" lon="5.85634">
        <ele>551</ele>
        <time>2009-05-12T12:47:24Z</time>
      </trkpt>
      <trkpt lat="44.23111" lon="5.85672">
        <ele>536</ele>
        <time>2009-05-12T12:47:48Z</time>
      </trkpt>
      <trkpt lat="44.19993" lon="5.86979">
        <ele>554</ele>
        <time>2009-05-12T13:35:07Z</time>
      </trkpt>
      <trkpt lat="44.20118" lon="5.87374">
        <ele>526</ele>
        <time>2009-05-12T13:36:19Z</time>
      </trkpt>
      <trkpt lat="44.20503" lon="5.87609">
        <ele>514</ele>
        <time>2009-05-12T13:37:28Z</time>
      </trkpt>
      <trkpt lat="44.20257" lon="5.88095">
        <ele>500</ele>
        <time>2009-05-12T13:40:36Z</time>
      </trkpt>
      <trkpt lat="44.19814" lon="5.91452">
        <ele>594</ele>
        <time>2009-05-12T14:07:07Z</time>
      </trkpt>
      <trkpt lat="44.19864" lon="5.92039">
        <ele>598</ele>
        <time>2009-05-12T14:09:34Z</time>
      </trkpt>
      <trkpt lat="44.19867" lon="5.94078">
        <ele>569</ele>
        <time>2009-05-12T14:35:11Z</time>
      </trkpt>
      <trkpt lat="44.19505" lon="5.94323">
        <ele>497</ele>
        <time>2009-11-29T21:28:58Z</time>
      </trkpt>
      <trkpt lat="44.19929" lon="5.94497">
        <ele>518</ele>
        <time>2009-11-29T21:36:04Z</time>
      </trkpt>
      <trkpt lat="44.20061" lon="5.94287">
        <ele>480</ele>
        <time>2009-11-29T21:36:39Z</time>
      </trkpt>
      <trkpt lat="44.20044" lon="5.94434">
        <ele>478</ele>
        <time>2009-11-29T21:39:01Z</time>
      </trkpt>
      <trkpt lat="44.19225" lon="5.95718">
        <ele>578</ele>
        <time>2009-11-29T22:07:08Z</time>
      </trkpt>
      <trkpt lat="44.18789" lon="5.9688">
        <ele>661</ele>
        <time>2009-11-29T22:16:34Z</time>
      </trkpt>
      <trkpt lat="44.18742" lon="5.96955">
        <ele>662</ele>
        <time>2009-11-29T22:17:14Z</time>
      </trkpt>
      <trkpt lat="44.18569" lon="5.97556">
        <ele>640</ele>
        <time>2009-11-29T22:24:09Z</time>
      </trkpt>
      <trkpt lat="44.18708" lon="5.99306">
        <ele>556</ele>
        <time>2009-11-29T22:27:59Z</time>
      </trkpt>
      <trkpt lat="44.19716" lon="5.99131">
        <ele>602</ele>
        <time>2009-11-29T22:37:45Z</time>
      </trkpt>
      <trkpt lat="44.20342" lon="5.98403">
        <ele>631</ele>
        <time>2009-11-29T22:58:03Z</time>
      </trkpt>
      <trkpt lat="44.20713" lon="5.98885">
        <ele>654</ele>
        <time>2009-11-29T23:04:04Z</time>
      </trkpt>
      <trkpt lat="44.21708" lon="5.99521">
        <ele>738</ele>
        <time>2009-11-29T23:15:14Z</time>
      </trkpt>
      <trkpt lat="44.21976" lon="5.99956">
        <ele>788</ele>
        <time>2009-11-29T23:19:59Z</time>
      </trkpt>
      <trkpt lat="44.21831" lon="6.00146">
        <ele>809</ele>
        <time>2009-11-29T23:24:43Z</time>
      </trkpt>
      <trkpt lat="44.22197" lon="6.00113">
        <ele>827</ele>
        <time>2009-11-29T23:29:26Z</time>
      </trkpt>
      <trkpt lat="44.22214" lon="6.00129">
        <ele>827</ele>
        <time>2009-11-29T23:29:36Z</time>
      </trkpt>
      <trkpt lat="44.2177" lon="6.01064">
        <ele>901</ele>
        <time>2009-11-29T23:37:07Z</time>
      </trkpt>
      <trkpt lat="44.21864" lon="6.01541">
        <ele>956</ele>
        <time>2009-11-29T23:41:37Z</time>
      </trkpt>
      <trkpt lat="44.2181" lon="6.01811">
        <ele>968</ele>
        <time>2009-11-29T23:43:17Z</time>
      </trkpt>
      <trkpt lat="44.21605" lon="6.01779">
        <ele>985</ele>
        <time>2009-11-29T23:45:20Z</time>
      </trkpt>
      <trkpt lat="44.21764" lon="6.02718">
        <ele>1082</ele>
        <time>2009-11-29T23:58:25Z</time>
      </trkpt>
      <trkpt lat="44.2179" lon="6.03079">
        <ele>1108</ele>
        <time>2009-11-30T00:04:22Z</time>
      </trkpt>
      <trkpt lat="44.22123" lon="6.0498">
        <ele>1066</ele>
        <time>2009-11-30T00:22:02Z</time>
      </trkpt>
      <trkpt lat="44.2319" lon="6.05551">
        <ele>1127</ele>
        <time>2009-11-30T01:31:19Z</time>
      </trkpt>
      <trkpt lat="44.23788" lon="6.05727">
        <ele>1106</ele>
        <time>2009-11-30T01:40:53Z</time>
      </trkpt>
      <trkpt lat="44.24084" lon="6.05221">
        <ele>1097</ele>
        <time>2009-11-30T01:50:26Z</time>
      </trkpt>
      <trkpt lat="44.24372" lon="6.05319">
        <ele>1102</ele>
        <time>2010-06-06T07:53:47Z</time>
      </trkpt>
      <trkpt lat="44.23899" lon="6.07784">
        <ele>1155</ele>
        <time>2010-06-06T08:02:37Z</time>
      </trkpt>
      <trkpt lat="44.23772" lon="6.08175">
        <ele>1102</ele>
        <time>2010-06-06T08:03:47Z</time>
      </trkpt>
      <trkpt lat="44.23523" lon="6.08298">
        <ele>1089</ele>
        <time>2010-06-06T08:06:16Z</time>
      </trkpt>
      <trkpt lat="44.2288" lon="6.07972">
        <ele>1061</ele>
        <time>2010-06-06T08:11:37Z</time>
      </trkpt>
      <trkpt lat="44.2238" lon="6.07892">
        <ele>997</ele>
        <time>2010-06-06T08:14:36Z</time>
      </trkpt>
      <trkpt lat="44.2228" lon="6.0801">
        <ele>968</ele>
        <time>2010-06-06T08:17:05Z</time>
      </trkpt>
      <trkpt lat="44.22537" lon="6.08296">
        <ele>956</ele>
        <time>2010-06-06T08:21:14Z</time>
      </trkpt>
      <trkpt lat="44.22675" lon="6.08352">
        <ele>936</ele>
        <time>2010-06-06T08:21:54Z</time>
      </trkpt>
      <trkpt lat="44.22657" lon="6.08669">
        <ele>848</ele>
        <time>2010-06-06T08:25:18Z</time>
      </trkpt>
      <trkpt lat="44.22593" lon="6.08706">
        <ele>861</ele>
        <time>2010-06-06T08:28:35Z</time>
      </trkpt>
      <trkpt lat="44.22487" lon="6.08776">
        <ele>802</ele>
        <time>2010-06-06T08:29:15Z</time>
      </trkpt>
      <trkpt lat="44.21796" lon="6.0799">
        <ele>724</ele>
        <time>2010-06-06T08:46:42Z</time>
      </trkpt>
      <trkpt lat="44.21632" lon="6.08088">
        <ele>767</ele>
        <time>2010-06-06T08:48:24Z</time>
      </trkpt>
      <trkpt lat="44.21285" lon="6.0887">
        <ele>780</ele>
        <time>2010-06-06T08:53:44Z</time>
      </trkpt>
      <trkpt lat="44.21563" lon="6.11345">
        <ele>1180</ele>
        <time>2010-06-06T09:42:26Z</time>
      </trkpt>
      <trkpt lat="44.21139" lon="6.11635">
        <ele>1245</ele>
        <time>2010-06-06T10:00:32Z</time>
      </trkpt>
      <trkpt lat="44.20778" lon="6.11834">
        <ele>1235</ele>
        <time>2010-06-06T10:06:37Z</time>
      </trkpt>
      <trkpt lat="44.20822" lon="6.10731">
        <ele>1290</ele>
        <time>2010-06-06T10:15:30Z</time>
      </trkpt>
      <trkpt lat="44.20636" lon="6.1036">
        <ele>1325</ele>
        <time>2010-06-06T10:17:50Z</time>
      </trkpt>
      <trkpt lat="44.19949" lon="6.09744">
        <ele>1359</ele>
        <time>2010-06-06T11:15:21Z</time>
      </trkpt>
      <trkpt lat="44.18337" lon="6.09759">
        <ele>1367</ele>
        <time>2010-06-06T11:27:24Z</time>
      </trkpt>
      <trkpt lat="44.1748" lon="6.09183">
        <ele>1445</ele>
        <time>2010-06-06T11:42:01Z</time>
      </trkpt>
      <trkpt lat="44.16672" lon="6.0847">
        <ele>1435</ele>
        <time>2010-06-06T11:52:04Z</time>
      </trkpt>
      <trkpt lat="44.16529" lon="6.08161">
        <ele>1404</ele>
        <time>2010-06-06T11:54:52Z</time>
      </trkpt>
      <trkpt lat="44.15983" lon="6.08086">
        <ele>1351</ele>
        <time>2010-06-06T11:58:58Z</time>
      </trkpt>
      <trkpt lat="44.15816" lon="6.08222">
        <ele>1305</ele>
        <time>2010-06-06T11:59:48Z</time>
      </trkpt>
      <trkpt lat="44.1582" lon="6.08058">
        <ele>1313</ele>
        <time>2010-06-06T12:01:16Z</time>
      </trkpt>
      <trkpt lat="44.15211" lon="6.07532">
        <ele>1266</ele>
        <time>2010-06-06T12:06:53Z</time>
      </trkpt>
      <trkpt lat="44.15172" lon="6.07239">
        <ele>1255</ele>
        <time>2010-06-06T12:07:43Z</time>
      </trkpt>
      <trkpt lat="44.14838" lon="6.07092">
        <ele>1237</ele>
        <time>2010-06-06T12:09:13Z</time>
      </trkpt>
      <trkpt lat="44.14886" lon="6.06848">
        <ele>1227</ele>
        <time>2010-06-06T12:10:13Z</time>
      </trkpt>
      <trkpt lat="44.14375" lon="6.06533">
        <ele>1227</ele>
        <time>2010-06-06T12:15:54Z</time>
      </trkpt>
      <trkpt lat="44.14058" lon="6.0623">
        <ele>1192</ele>
        <time>2010-06-06T12:19:39Z</time>
      </trkpt>
      <trkpt lat="44.13463" lon="6.07268">
        <ele>1116</ele>
        <time>2010-06-06T12:29:45Z</time>
      </trkpt>
      <trkpt lat="44.12831" lon="6.07217">
        <ele>1162</ele>
        <time>2010-06-06T12:36:49Z</time>
      </trkpt>
      <trkpt lat="44.12294" lon="6.07761">
        <ele>1143</ele>
        <time>2010-06-06T12:48:50Z</time>
      </trkpt>
      <trkpt lat="44.12659" lon="6.09536">
        <ele>839</ele>
        <time>2010-06-06T13:14:14Z</time>
      </trkpt>
      <trkpt lat="44.13033" lon="6.10508">
        <ele>756</ele>
        <time>2010-06-06T13:15:53Z</time>
      </trkpt>
      <trkpt lat="44.12922" lon="6.11676">
        <ele>723</ele>
        <time>2010-06-06T13:18:03Z</time>
      </trkpt>
      <trkpt lat="44.13721" lon="6.11903">
        <ele>817</ele>
        <time>2010-06-06T13:36:10Z</time>
      </trkpt>
      <trkpt lat="44.13631" lon="6.12049">
        <ele>835</ele>
        <time>2010-06-06T13:38:35Z</time>
      </trkpt>
      <trkpt lat="44.13932" lon="6.12301">
        <ele>819</ele>
        <time>2010-06-06T13:40:18Z</time>
      </trkpt>
      <trkpt lat="44.14137" lon="6.12955">
        <ele>819</ele>
        <time>2010-06-06T13:42:18Z</time>
      </trkpt>
      <trkpt lat="44.14447" lon="6.13246">
        <ele>785</ele>
        <time>2010-06-06T13:43:18Z</time>
      </trkpt>
      <trkpt lat="44.14556" lon="6.14374">
        <ele>739</ele>
        <time>2010-06-06T13:46:28Z</time>
      </trkpt>
      <trkpt lat="44.14797" lon="6.14349">
        <ele>764</ele>
        <time>2010-06-06T13:48:39Z</time>
      </trkpt>
      <trkpt lat="44.15139" lon="6.15631">
        <ele>858</ele>
        <time>2009-11-30T23:04:19Z</time>
      </trkpt>
      <trkpt lat="44.14355" lon="6.15741">
        <ele>951</ele>
        <time>2009-11-30T23:14:40Z</time>
      </trkpt>
      <trkpt lat="44.1449" lon="6.16233">
        <ele>1015</ele>
        <time>2009-11-30T23:20:16Z</time>
      </trkpt>
      <trkpt lat="44.14183" lon="6.17088">
        <ele>1010</ele>
        <time>2009-11-30T23:24:11Z</time>
      </trkpt>
      <trkpt lat="44.13176" lon="6.17016">
        <ele>1046</ele>
        <time>2009-11-30T23:30:11Z</time>
      </trkpt>
      <trkpt lat="44.13121" lon="6.16823">
        <ele>1057</ele>
        <time>2009-11-30T23:31:56Z</time>
      </trkpt>
      <trkpt lat="44.13088" lon="6.16772">
        <ele>1053</ele>
        <time>2009-11-30T23:32:41Z</time>
      </trkpt>
      <trkpt lat="44.12702" lon="6.1679">
        <ele>1063</ele>
        <time>2009-11-30T23:39:44Z</time>
      </trkpt>
      <trkpt lat="44.12764" lon="6.17038">
        <ele>1099</ele>
        <time>2009-12-01T00:00:07Z</time>
      </trkpt>
      <trkpt lat="44.12913" lon="6.17877">
        <ele>1100</ele>
        <time>2010-06-06T14:58:53Z</time>
      </trkpt>
      <trkpt lat="44.12907" lon="6.18455">
        <ele>1022</ele>
        <time>2010-06-06T15:03:50Z</time>
      </trkpt>
      <trkpt lat="44.1251" lon="6.18516">
        <ele>1045</ele>
        <time>2010-06-06T15:08:25Z</time>
      </trkpt>
      <trkpt lat="44.12264" lon="6.19065">
        <ele>971</ele>
        <time>2010-06-06T15:18:08Z</time>
      </trkpt>
      <trkpt lat="44.12098" lon="6.19095">
        <ele>995</ele>
        <time>2010-06-06T15:21:43Z</time>
      </trkpt>
      <trkpt lat="44.11809" lon="6.19067">
        <ele>967</ele>
        <time>2010-06-06T15:27:27Z</time>
      </trkpt>
      <trkpt lat="44.11524" lon="6.18901">
        <ele>949</ele>
        <time>2010-06-06T15:31:40Z</time>
      </trkpt>
      <trkpt lat="44.10871" lon="6.19767">
        <ele>980</ele>
        <time>2010-06-06T15:40:05Z</time>
      </trkpt>
      <trkpt lat="44.10647" lon="6.20669">
        <ele>942</ele>
        <time>2010-06-06T15:45:24Z</time>
      </trkpt>
      <trkpt lat="44.0994" lon="6.21258">
        <ele>728</ele>
        <time>2010-06-06T15:54:33Z</time>
      </trkpt>
      <trkpt lat="44.0979" lon="6.21916">
        <ele>777</ele>
        <time>2010-06-06T16:01:00Z</time>
      </trkpt>
      <trkpt lat="44.09416" lon="6.22063">
        <ele>778</ele>
        <time>2010-06-06T16:03:40Z</time>
      </trkpt>
      <trkpt lat="44.08981" lon="6.22467">
        <ele>623</ele>
        <time>2010-06-06T16:07:46Z</time>
      </trkpt>
      <trkpt lat="44.09092" lon="6.24449">
        <ele>614</ele>
        <time>2009-07-21T08:23:40Z</time>
      </trkpt>
      <trkpt lat="44.0897" lon="6.24877">
        <ele>614</ele>
        <time>2009-07-21T08:24:34Z</time>
      </trkpt>
      <trkpt lat="44.08726" lon="6.25055">
        <ele>641</ele>
        <time>2009-07-21T08:28:21Z</time>
      </trkpt>
      <trkpt lat="44.08072" lon="6.25549">
        <ele>644</ele>
        <time>2009-07-21T08:38:49Z</time>
      </trkpt>
      <trkpt lat="44.07746" lon="6.27044">
        <ele>690</ele>
        <time>2009-07-21T08:54:49Z</time>
      </trkpt>
      <trkpt lat="44.07061" lon="6.2715">
        <ele>691</ele>
        <time>2009-07-21T09:00:01Z</time>
      </trkpt>
      <trkpt lat="44.07531" lon="6.2668">
        <ele>778</ele>
        <time>2009-07-21T09:05:47Z</time>
      </trkpt>
      <trkpt lat="44.07133" lon="6.2577">
        <ele>846</ele>
        <time>2009-07-21T09:11:32Z</time>
      </trkpt>
      <trkpt lat="44.07287" lon="6.25853">
        <ele>898</ele>
        <time>2009-07-21T09:19:18Z</time>
      </trkpt>
      <trkpt lat="44.06995" lon="6.25128">
        <ele>956</ele>
        <time>2009-07-21T09:25:18Z</time>
      </trkpt>
      <trkpt lat="44.06563" lon="6.246">
        <ele>1041</ele>
        <time>2009-07-21T09:41:22Z</time>
      </trkpt>
      <trkpt lat="44.06773" lon="6.24564">
        <ele>1085</ele>
        <time>2009-07-21T09:52:28Z</time>
      </trkpt>
      <trkpt lat="44.06542" lon="6.24461">
        <ele>1091</ele>
        <time>2009-07-21T10:26:59Z</time>
      </trkpt>
      <trkpt lat="44.05617" lon="6.25064">
        <ele>1149</ele>
        <time>2009-07-21T10:35:17Z</time>
      </trkpt>
      <trkpt lat="44.05047" lon="6.24938">
        <ele>1168</ele>
        <time>2009-07-21T10:42:14Z</time>
      </trkpt>
      <trkpt lat="44.05149" lon="6.25154">
        <ele>1233</ele>
        <time>2009-07-21T10:44:59Z</time>
      </trkpt>
      <trkpt lat="44.05498" lon="6.25378">
        <ele>1195</ele>
        <time>2009-07-21T11:14:49Z</time>
      </trkpt>
      <trkpt lat="44.05031" lon="6.25591">
        <ele>1077</ele>
        <time>2009-07-21T11:17:13Z</time>
      </trkpt>
      <trkpt lat="44.04575" lon="6.26045">
        <ele>1013</ele>
        <time>2009-07-21T11:19:07Z</time>
      </trkpt>
      <trkpt lat="44.04565" lon="6.26567">
        <ele>969</ele>
        <time>2009-07-21T11:22:58Z</time>
      </trkpt>
      <trkpt lat="44.04193" lon="6.27558">
        <ele>998</ele>
        <time>2009-07-21T11:39:37Z</time>
      </trkpt>
      <trkpt lat="44.04142" lon="6.27697">
        <ele>989</ele>
        <time>2009-07-21T11:40:05Z</time>
      </trkpt>
      <trkpt lat="44.02664" lon="6.28962">
        <ele>1053</ele>
        <time>2009-07-21T12:02:00Z</time>
      </trkpt>
      <trkpt lat="44.02588" lon="6.29664">
        <ele>1106</ele>
        <time>2009-07-21T12:05:54Z</time>
      </trkpt>
      <trkpt lat="44.03546" lon="6.29749">
        <ele>1022</ele>
        <time>2009-07-21T08:15:30Z</time>
      </trkpt>
      <trkpt lat="44.03808" lon="6.29891">
        <ele>1002</ele>
        <time>2009-07-21T08:18:19Z</time>
      </trkpt>
      <trkpt lat="44.03877" lon="6.30187">
        <ele>1011</ele>
        <time>2009-07-21T08:20:34Z</time>
      </trkpt>
      <trkpt lat="44.04353" lon="6.30239">
        <ele>1006</ele>
        <time>2009-07-21T08:22:25Z</time>
      </trkpt>
      <trkpt lat="44.04389" lon="6.30893">
        <ele>975</ele>
        <time>2009-07-21T08:23:35Z</time>
      </trkpt>
      <trkpt lat="44.04839" lon="6.30585">
        <ele>1035</ele>
        <time>2009-07-21T08:28:44Z</time>
      </trkpt>
      <trkpt lat="44.04896" lon="6.30944">
        <ele>1070</ele>
        <time>2009-07-21T08:33:23Z</time>
      </trkpt>
      <trkpt lat="44.05906" lon="6.31182">
        <ele>1054</ele>
        <time>2009-07-21T08:45:46Z</time>
      </trkpt>
      <trkpt lat="44.06132" lon="6.31497">
        <ele>1033</ele>
        <time>2009-07-21T08:46:52Z</time>
      </trkpt>
      <trkpt lat="44.06561" lon="6.31197">
        <ele>1049</ele>
        <time>2009-07-21T08:48:49Z</time>
      </trkpt>
      <trkpt lat="44.06599" lon="6.30981">
        <ele>1028.4</ele>
      </trkpt>
      <trkpt lat="44.06783" lon="6.31185">
        <ele>1034.4</ele>
      </trkpt>
      <trkpt lat="44.06773" lon="6.30909">
        <ele>1005.2</ele>
      </trkpt>
      <trkpt lat="44.07632" lon="6.30993">
        <ele>997</ele>
        <time>2009-07-21T09:02:18Z</time>
      </trkpt>
      <trkpt lat="44.07945" lon="6.30629">
        <ele>1000</ele>
        <time>2009-07-21T09:06:16Z</time>
      </trkpt>
      <trkpt lat="44.08019" lon="6.30983">
        <ele>966</ele>
        <time>2009-07-21T09:06:43Z</time>
      </trkpt>
      <trkpt lat="44.08308" lon="6.30808">
        <ele>954</ele>
        <time>2009-07-21T09:07:31Z</time>
      </trkpt>
      <trkpt lat="44.0898" lon="6.31407">
        <ele>1024</ele>
        <time>2009-07-21T09:25:58Z</time>
      </trkpt>
      <trkpt lat="44.09357" lon="6.3157">
        <ele>1018</ele>
        <time>2009-07-21T09:33:20Z</time>
      </trkpt>
      <trkpt lat="44.09475" lon="6.32021">
        <ele>994</ele>
        <time>2009-07-21T09:37:00Z</time>
      </trkpt>
      <trkpt lat="44.09884" lon="6.32107">
        <ele>1017</ele>
        <time>2009-07-21T09:39:33Z</time>
      </trkpt>
      <trkpt lat="44.10035" lon="6.31744">
        <ele>1033</ele>
        <time>2009-07-21T09:41:24Z</time>
      </trkpt>
      <trkpt lat="44.10272" lon="6.31696">
        <ele>1047</ele>
        <time>2009-07-21T09:43:12Z</time>
      </trkpt>
      <trkpt lat="44.10758" lon="6.31786">
        <ele>1090.4</ele>
      </trkpt>
      <trkpt lat="44.10864" lon="6.32112">
        <ele>1120</ele>
        <time>2009-07-21T10:47:02Z</time>
      </trkpt>
      <trkpt lat="44.11069" lon="6.32115">
        <ele>1102</ele>
        <time>2009-07-21T10:49:41Z</time>
      </trkpt>
      <trkpt lat="44.11218" lon="6.32996">
        <ele>1019</ele>
        <time>2009-07-21T11:08:54Z</time>
      </trkpt>
      <trkpt lat="44.11532" lon="6.33276">
        <ele>993</ele>
        <time>2009-07-21T11:12:15Z</time>
      </trkpt>
      <trkpt lat="44.12684" lon="6.33727">
        <ele>948</ele>
        <time>2009-07-21T11:42:19Z</time>
      </trkpt>
      <trkpt lat="44.13007" lon="6.33609">
        <ele>984</ele>
        <time>2009-07-21T11:51:22Z</time>
      </trkpt>
      <trkpt lat="44.13446" lon="6.33686">
        <ele>941</ele>
        <time>2009-07-21T11:54:47Z</time>
      </trkpt>
      <trkpt lat="44.13237" lon="6.34162">
        <ele>855</ele>
        <time>2009-07-21T11:58:59Z</time>
      </trkpt>
      <trkpt lat="44.13433" lon="6.34244">
        <ele>869</ele>
        <time>2009-07-21T12:01:08Z</time>
      </trkpt>
      <trkpt lat="44.13401" lon="6.35315">
        <ele>971</ele>
        <time>2009-07-21T12:23:15Z</time>
      </trkpt>
      <trkpt lat="44.1339" lon="6.35428">
        <ele>968</ele>
        <time>2009-07-21T12:24:15Z</time>
      </trkpt>
      <trkpt lat="44.12836" lon="6.35359">
        <ele>1043</ele>
        <time>2009-07-21T12:37:43Z</time>
      </trkpt>
      <trkpt lat="44.12718" lon="6.35346">
        <ele>1023</ele>
        <time>2009-07-21T12:38:34Z</time>
      </trkpt>
      <trkpt lat="44.12576" lon="6.35716">
        <ele>1090</ele>
        <time>2009-07-21T12:47:17Z</time>
      </trkpt>
      <trkpt lat="44.12593" lon="6.36681">
        <ele>1134</ele>
        <time>2009-07-21T12:58:33Z</time>
      </trkpt>
      <trkpt lat="44.12255" lon="6.3731">
        <ele>1219</ele>
        <time>2009-07-21T13:08:23Z</time>
      </trkpt>
      <trkpt lat="44.12041" lon="6.37469">
        <ele>1201</ele>
        <time>2009-07-21T13:12:59Z</time>
      </trkpt>
      <trkpt lat="44.12062" lon="6.38146">
        <ele>1262</ele>
        <time>2009-07-21T13:19:39Z</time>
      </trkpt>
      <trkpt lat="44.11861" lon="6.38726">
        <ele>1282</ele>
        <time>2009-07-21T13:29:21Z</time>
      </trkpt>
      <trkpt lat="44.11568" lon="6.38916">
        <ele>1361</ele>
        <time>2009-07-21T13:36:31Z</time>
      </trkpt>
      <trkpt lat="44.1128" lon="6.38976">
        <ele>1371</ele>
        <time>2009-07-21T13:42:28Z</time>
      </trkpt>
      <trkpt lat="44.11233" lon="6.39006">
        <ele>1358</ele>
        <time>2009-07-21T13:42:49Z</time>
      </trkpt>
      <trkpt lat="44.11198" lon="6.3907">
        <ele>1258</ele>
        <time>2009-07-21T13:43:13Z</time>
      </trkpt>
      <trkpt lat="44.11324" lon="6.39251">
        <ele>1374</ele>
        <time>2009-07-21T13:44:10Z</time>
      </trkpt>
      <trkpt lat="44.11305" lon="6.39657">
        <ele>1415</ele>
        <time>2009-07-21T13:49:37Z</time>
      </trkpt>
      <trkpt lat="44.11463" lon="6.39713">
        <ele>1448</ele>
        <time>2009-07-21T13:54:56Z</time>
      </trkpt>
      <trkpt lat="44.11147" lon="6.398">
        <ele>1515</ele>
        <time>2009-07-21T14:05:43Z</time>
      </trkpt>
      <trkpt lat="44.10757" lon="6.39869">
        <ele>1484</ele>
        <time>2009-07-21T14:22:56Z</time>
      </trkpt>
      <trkpt lat="44.09603" lon="6.39424">
        <ele>1295</ele>
        <time>2009-07-21T14:44:37Z</time>
      </trkpt>
      <trkpt lat="44.09531" lon="6.39304">
        <ele>1207</ele>
        <time>2009-07-21T14:46:46Z</time>
      </trkpt>
      <trkpt lat="44.09058" lon="6.3918">
        <ele>1131</ele>
        <time>2009-07-21T14:48:01Z</time>
      </trkpt>
      <trkpt lat="44.08843" lon="6.38701">
        <ele>1131</ele>
        <time>2009-07-21T14:49:58Z</time>
      </trkpt>
      <trkpt lat="44.08832" lon="6.38909">
        <ele>1100</ele>
        <time>2009-07-21T14:51:19Z</time>
      </trkpt>
      <trkpt lat="44.08201" lon="6.38577">
        <ele>1074</ele>
        <time>2009-07-21T14:53:40Z</time>
      </trkpt>
      <trkpt lat="44.0814" lon="6.38343">
        <ele>1016</ele>
        <time>2009-07-21T14:54:34Z</time>
      </trkpt>
      <trkpt lat="44.07725" lon="6.38302">
        <ele>996</ele>
        <time>2009-07-21T14:56:26Z</time>
      </trkpt>
      <trkpt lat="44.06778" lon="6.38713">
        <ele>948</ele>
        <time>2009-07-21T15:08:11Z</time>
      </trkpt>
      <trkpt lat="44.06352" lon="6.39572">
        <ele>930</ele>
        <time>2009-07-21T15:16:35Z</time>
      </trkpt>
      <trkpt lat="44.06295" lon="6.40868">
        <ele>985</ele>
        <time>2009-07-21T15:23:11Z</time>
      </trkpt>
      <trkpt lat="44.07076" lon="6.41172">
        <ele>1065</ele>
        <time>2009-07-21T15:43:29Z</time>
      </trkpt>
      <trkpt lat="44.07019" lon="6.4141">
        <ele>1052</ele>
        <time>2009-07-21T15:44:52Z</time>
      </trkpt>
      <trkpt lat="44.06564" lon="6.41597">
        <ele>1085</ele>
        <time>2009-07-21T15:48:27Z</time>
      </trkpt>
      <trkpt lat="44.06448" lon="6.41949">
        <ele>1122</ele>
        <time>2009-07-21T15:51:48Z</time>
      </trkpt>
      <trkpt lat="44.06775" lon="6.41863">
        <ele>1144</ele>
        <time>2009-07-21T16:03:25Z</time>
      </trkpt>
      <trkpt lat="44.06726" lon="6.41967">
        <ele>1160</ele>
        <time>2009-07-21T16:04:16Z</time>
      </trkpt>
      <trkpt lat="44.06339" lon="6.42492">
        <ele>1199</ele>
        <time>2009-07-21T16:08:37Z</time>
      </trkpt>
      <trkpt lat="44.05535" lon="6.42612">
        <ele>1276</ele>
        <time>2009-07-21T16:19:37Z</time>
      </trkpt>
      <trkpt lat="44.05444" lon="6.42687">
        <ele>1266</ele>
        <time>2009-07-21T13:29:14Z</time>
      </trkpt>
      <trkpt lat="44.06518" lon="6.42973">
        <ele>1361</ele>
        <time>2009-07-21T13:44:52Z</time>
      </trkpt>
      <trkpt lat="44.06914" lon="6.43243">
        <ele>1337</ele>
        <time>2009-07-21T13:48:28Z</time>
      </trkpt>
      <trkpt lat="44.07406" lon="6.43182">
        <ele>1264</ele>
        <time>2009-07-21T13:53:33Z</time>
      </trkpt>
      <trkpt lat="44.07545" lon="6.43548">
        <ele>1290.7</ele>
      </trkpt>
      <trkpt lat="44.07658" lon="6.43338">
        <ele>1322.6</ele>
      </trkpt>
      <trkpt lat="44.07581" lon="6.43732">
        <ele>1330.3</ele>
      </trkpt>
      <trkpt lat="44.078" lon="6.44354">
        <ele>1386</ele>
        <time>2009-07-21T14:19:23Z</time>
      </trkpt>
      <trkpt lat="44.08019" lon="6.44826">
        <ele>1292</ele>
        <time>2009-07-21T14:23:58Z</time>
      </trkpt>
      <trkpt lat="44.07793" lon="6.4561">
        <ele>1296</ele>
        <time>2009-07-21T14:29:33Z</time>
      </trkpt>
      <trkpt lat="44.07568" lon="6.45738">
        <ele>1295</ele>
        <time>2009-07-21T14:30:36Z</time>
      </trkpt>
      <trkpt lat="44.07215" lon="6.4637">
        <ele>1328</ele>
        <time>2009-07-21T14:35:33Z</time>
      </trkpt>
      <trkpt lat="44.06759" lon="6.46414">
        <ele>1288</ele>
        <time>2009-07-21T14:42:26Z</time>
      </trkpt>
      <trkpt lat="44.06926" lon="6.46491">
        <ele>1262</ele>
        <time>2009-07-21T14:47:08Z</time>
      </trkpt>
      <trkpt lat="44.06964" lon="6.46858">
        <ele>1202</ele>
        <time>2009-07-21T14:48:08Z</time>
      </trkpt>
      <trkpt lat="44.07152" lon="6.47542">
        <ele>1097</ele>
        <time>2009-07-21T14:49:56Z</time>
      </trkpt>
      <trkpt lat="44.07531" lon="6.47959">
        <ele>1089</ele>
        <time>2009-07-21T15:02:04Z</time>
      </trkpt>
      <trkpt lat="44.08653" lon="6.48014">
        <ele>1114</ele>
        <time>2009-07-21T15:22:19Z</time>
      </trkpt>
      <trkpt lat="44.09342" lon="6.48433">
        <ele>1119</ele>
        <time>2009-07-21T15:28:27Z</time>
      </trkpt>
      <trkpt lat="44.09517" lon="6.49471">
        <ele>1168</ele>
        <time>2009-07-21T15:36:53Z</time>
      </trkpt>
      <trkpt lat="44.0955" lon="6.49996">
        <ele>1151</ele>
        <time>2009-07-21T15:38:41Z</time>
      </trkpt>
      <trkpt lat="44.09065" lon="6.49938">
        <ele>1133</ele>
        <time>2009-07-21T15:47:33Z</time>
      </trkpt>
      <trkpt lat="44.09046" lon="6.50262">
        <ele>1132</ele>
        <time>2009-07-21T15:55:00Z</time>
      </trkpt>
      <trkpt lat="44.08591" lon="6.50322">
        <ele>1104</ele>
        <time>2009-07-22T07:25:37Z</time>
      </trkpt>
      <trkpt lat="44.08496" lon="6.50577">
        <ele>1130</ele>
        <time>2009-07-22T07:30:24Z</time>
      </trkpt>
      <trkpt lat="44.08794" lon="6.51023">
        <ele>1127</ele>
        <time>2009-07-22T07:33:37Z</time>
      </trkpt>
      <trkpt lat="44.0806" lon="6.5122">
        <ele>1222</ele>
        <time>2009-07-22T07:40:15Z</time>
      </trkpt>
      <trkpt lat="44.08074" lon="6.50879">
        <ele>1245</ele>
        <time>2009-07-22T07:40:54Z</time>
      </trkpt>
      <trkpt lat="44.07687" lon="6.50984">
        <ele>1310</ele>
        <time>2009-07-22T07:43:45Z</time>
      </trkpt>
      <trkpt lat="44.0766" lon="6.51233">
        <ele>1327</ele>
        <time>2009-07-22T07:44:09Z</time>
      </trkpt>
      <trkpt lat="44.07365" lon="6.50954">
        <ele>1367</ele>
        <time>2009-07-22T07:44:57Z</time>
      </trkpt>
      <trkpt lat="44.07155" lon="6.50276">
        <ele>1427</ele>
        <time>2009-07-22T07:47:13Z</time>
      </trkpt>
      <trkpt lat="44.07036" lon="6.4973">
        <ele>1467</ele>
        <time>2009-07-22T07:48:07Z</time>
      </trkpt>
      <trkpt lat="44.06522" lon="6.494">
        <ele>1501</ele>
        <time>2009-07-22T07:50:26Z</time>
      </trkpt>
      <trkpt lat="44.05872" lon="6.50658">
        <ele>1486</ele>
        <time>2009-07-22T08:06:05Z</time>
      </trkpt>
      <trkpt lat="44.0594" lon="6.5103">
        <ele>1448</ele>
        <time>2009-07-22T08:08:09Z</time>
      </trkpt>
      <trkpt lat="44.06064" lon="6.51191">
        <ele>1439</ele>
        <time>2009-07-22T08:08:30Z</time>
      </trkpt>
      <trkpt lat="44.05863" lon="6.51261">
        <ele>1470</ele>
        <time>2009-07-22T08:10:24Z</time>
      </trkpt>
      <trkpt lat="44.05812" lon="6.51453">
        <ele>1476</ele>
        <time>2009-07-22T08:11:27Z</time>
      </trkpt>
      <trkpt lat="44.05524" lon="6.5121">
        <ele>1499</ele>
        <time>2009-07-22T08:18:16Z</time>
      </trkpt>
      <trkpt lat="44.04571" lon="6.51169">
        <ele>1509</ele>
        <time>2009-07-22T08:31:46Z</time>
      </trkpt>
      <trkpt lat="44.04149" lon="6.51436">
        <ele>1514</ele>
        <time>2009-07-22T08:34:14Z</time>
      </trkpt>
      <trkpt lat="44.03907" lon="6.51169">
        <ele>1552</ele>
        <time>2009-07-22T08:38:49Z</time>
      </trkpt>
      <trkpt lat="44.03705" lon="6.51538">
        <ele>1572</ele>
        <time>2009-07-22T08:41:25Z</time>
      </trkpt>
      <trkpt lat="44.03448" lon="6.51354">
        <ele>1574</ele>
        <time>2009-07-22T08:45:13Z</time>
      </trkpt>
      <trkpt lat="44.03435" lon="6.51169">
        <ele>1567</ele>
        <time>2009-07-22T08:45:49Z</time>
      </trkpt>
      <trkpt lat="44.01755" lon="6.51598">
        <ele>1561</ele>
        <time>2009-07-22T09:01:51Z</time>
      </trkpt>
      <trkpt lat="44.01589" lon="6.52232">
        <ele>1595</ele>
        <time>2009-07-22T09:06:23Z</time>
      </trkpt>
      <trkpt lat="44.01282" lon="6.52334">
        <ele>1683</ele>
        <time>2009-07-22T09:12:23Z</time>
      </trkpt>
      <trkpt lat="44.00771" lon="6.52215">
        <ele>1666</ele>
        <time>2009-07-22T09:18:03Z</time>
      </trkpt>
      <trkpt lat="44.01279" lon="6.527">
        <ele>1735</ele>
        <time>2009-07-22T09:29:26Z</time>
      </trkpt>
      <trkpt lat="44.00894" lon="6.5262">
        <ele>1762</ele>
        <time>2009-07-22T09:41:35Z</time>
      </trkpt>
      <trkpt lat="43.99961" lon="6.52088">
        <ele>1538</ele>
        <time>2009-07-22T09:50:24Z</time>
      </trkpt>
      <trkpt lat="44.00068" lon="6.52002">
        <ele>1526</ele>
        <time>2009-07-22T09:51:36Z</time>
      </trkpt>
      <trkpt lat="44.0002" lon="6.51991">
        <ele>1512</ele>
        <time>2009-07-22T09:56:36Z</time>
      </trkpt>
      <trkpt lat="43.99969" lon="6.51918">
        <ele>1494</ele>
        <time>2009-07-22T10:00:21Z</time>
      </trkpt>
      <trkpt lat="43.995" lon="6.51968">
        <ele>1401</ele>
        <time>2009-07-22T10:02:35Z</time>
      </trkpt>
      <trkpt lat="43.98435" lon="6.51455">
        <ele>1160</ele>
        <time>2009-07-22T10:19:16Z</time>
      </trkpt>
      <trkpt lat="43.99319" lon="6.51023">
        <ele>1156</ele>
        <time>2009-07-22T10:39:59Z</time>
      </trkpt>
      <trkpt lat="43.9984" lon="6.50778">
        <ele>1088</ele>
        <time>2009-07-22T10:41:55Z</time>
      </trkpt>
      <trkpt lat="44.00034" lon="6.50493">
        <ele>1054</ele>
        <time>2009-07-22T10:43:54Z</time>
      </trkpt>
      <trkpt lat="43.99427" lon="6.50511">
        <ele>966</ele>
        <time>2009-07-22T10:49:22Z</time>
      </trkpt>
      <trkpt lat="43.99632" lon="6.50213">
        <ele>958</ele>
        <time>2009-07-22T10:54:39Z</time>
      </trkpt>
      <trkpt lat="43.98703" lon="6.5047">
        <ele>927</ele>
        <time>2009-07-22T10:57:39Z</time>
      </trkpt>
      <trkpt lat="43.98413" lon="6.50671">
        <ele>977</ele>
        <time>2009-07-22T10:58:17Z</time>
      </trkpt>
      <trkpt lat="43.96935" lon="6.51095">
        <ele>916</ele>
        <time>2009-07-22T08:38:51Z</time>
      </trkpt>
      <trkpt lat="43.96616" lon="6.50837">
        <ele>936</ele>
        <time>2009-07-22T08:46:05Z</time>
      </trkpt>
      <trkpt lat="43.96187" lon="6.50222">
        <ele>905</ele>
        <time>2009-07-22T08:50:57Z</time>
      </trkpt>
      <trkpt lat="43.95778" lon="6.50118">
        <ele>964</ele>
        <time>2009-07-22T09:02:44Z</time>
      </trkpt>
      <trkpt lat="43.95958" lon="6.49759">
        <ele>1014</ele>
        <time>2009-07-22T09:09:49Z</time>
      </trkpt>
      <trkpt lat="43.95725" lon="6.49973">
        <ele>1009</ele>
        <time>2009-07-22T09:15:02Z</time>
      </trkpt>
      <trkpt lat="43.95536" lon="6.50235">
        <ele>972</ele>
        <time>2009-07-22T09:17:08Z</time>
      </trkpt>
      <trkpt lat="43.9559" lon="6.50652">
        <ele>941</ele>
        <time>2009-07-22T09:20:40Z</time>
      </trkpt>
      <trkpt lat="43.94804" lon="6.50751">
        <ele>1073</ele>
        <time>2009-07-22T09:43:56Z</time>
      </trkpt>
      <trkpt lat="43.93979" lon="6.50313">
        <ele>1124</ele>
        <time>2009-07-22T09:52:42Z</time>
      </trkpt>
      <trkpt lat="43.94042" lon="6.49921">
        <ele>1164</ele>
        <time>2009-07-22T09:59:19Z</time>
      </trkpt>
      <trkpt lat="43.9338" lon="6.49997">
        <ele>1277</ele>
        <time>2009-07-22T10:12:38Z</time>
      </trkpt>
      <trkpt lat="43.9337" lon="6.50184">
        <ele>1265</ele>
        <time>2009-07-22T10:14:59Z</time>
      </trkpt>
      <trkpt lat="43.93215" lon="6.49947">
        <ele>1331</ele>
        <time>2009-07-22T10:16:59Z</time>
      </trkpt>
      <trkpt lat="43.9302" lon="6.50426">
        <ele>1311</ele>
        <time>2009-07-22T10:25:08Z</time>
      </trkpt>
      <trkpt lat="43.92512" lon="6.50891">
        <ele>1285</ele>
      </trkpt>
      <trkpt lat="43.91473" lon="6.50926">
        <ele>1264</ele>
      </trkpt>
      <trkpt lat="43.91159" lon="6.50884">
        <ele>1229</ele>
      </trkpt>
      <trkpt lat="43.90653" lon="6.51656">
        <ele>1205</ele>
      </trkpt>
      <trkpt lat="43.90415" lon="6.52196">
        <ele>1152</ele>
      </trkpt>
      <trkpt lat="43.90209" lon="6.51982">
        <ele>1119</ele>
      </trkpt>
      <trkpt lat="43.90115" lon="6.52353">
        <ele>1059</ele>
      </trkpt>
      <trkpt lat="43.89192" lon="6.50814">
        <ele>1130</ele>
      </trkpt>
      <trkpt lat="43.89266" lon="6.50237">
        <ele>1157</ele>
      </trkpt>
      <trkpt lat="43.88718" lon="6.5022">
        <ele>1079</ele>
      </trkpt>
      <trkpt lat="43.8828" lon="6.5069">
        <ele>1062</ele>
      </trkpt>
      <trkpt lat="43.8793" lon="6.50238">
        <ele>949</ele>
      </trkpt>
      <trkpt lat="43.87262" lon="6.51089">
        <ele>898</ele>
      </trkpt>
      <trkpt lat="43.86422" lon="6.51195">
        <ele>870</ele>
      </trkpt>
      <trkpt lat="43.86027" lon="6.51573">
        <ele>859</ele>
      </trkpt>
      <trkpt lat="43.85595" lon="6.51207">
        <ele>812</ele>
      </trkpt>
      <trkpt lat="43.85572" lon="6.51527">
        <ele>840</ele>
      </trkpt>
      <trkpt lat="43.85051" lon="6.50834">
        <ele>748</ele>
      </trkpt>
      <trkpt lat="43.84508" lon="6.51487">
        <ele>735</ele>
        <time>2009-07-22T13:17:13Z</time>
      </trkpt>
      <trkpt lat="43.84242" lon="6.52862">
        <ele>728</ele>
        <time>2009-07-22T13:19:13Z</time>
      </trkpt>
      <trkpt lat="43.84448" lon="6.54103">
        <ele>820</ele>
        <time>2009-05-05T08:33:59Z</time>
      </trkpt>
      <trkpt lat="43.84447" lon="6.55789">
        <ele>1018</ele>
        <time>2009-05-05T09:01:01Z</time>
      </trkpt>
      <trkpt lat="43.8487" lon="6.57905">
        <ele>1291</ele>
        <time>2009-05-05T09:38:03Z</time>
      </trkpt>
      <trkpt lat="43.85471" lon="6.59057">
        <ele>1238</ele>
        <time>2009-05-05T09:47:13Z</time>
      </trkpt>
      <trkpt lat="43.85784" lon="6.5898">
        <ele>1296</ele>
        <time>2009-05-05T09:50:34Z</time>
      </trkpt>
      <trkpt lat="43.86206" lon="6.59293">
        <ele>1307</ele>
        <time>2009-05-05T09:56:25Z</time>
      </trkpt>
      <trkpt lat="43.86418" lon="6.59578">
        <ele>1296</ele>
        <time>2009-05-05T09:57:37Z</time>
      </trkpt>
      <trkpt lat="43.86703" lon="6.62305">
        <ele>1335</ele>
        <time>2009-05-05T10:10:14Z</time>
      </trkpt>
      <trkpt lat="43.86585" lon="6.63321">
        <ele>1375</ele>
        <time>2009-05-05T10:17:43Z</time>
      </trkpt>
      <trkpt lat="43.86663" lon="6.63775">
        <ele>1397</ele>
        <time>2009-05-05T10:18:04Z</time>
      </trkpt>
      <trkpt lat="43.86714" lon="6.63128">
        <ele>1416</ele>
        <time>2009-05-05T10:18:31Z</time>
      </trkpt>
      <trkpt lat="43.86986" lon="6.62704">
        <ele>1456</ele>
        <time>2009-05-05T10:18:54Z</time>
      </trkpt>
      <trkpt lat="43.87226" lon="6.62607">
        <ele>1477</ele>
        <time>2009-05-05T10:19:48Z</time>
      </trkpt>
      <trkpt lat="43.87527" lon="6.6247">
        <ele>1539</ele>
        <time>2009-05-05T10:20:12Z</time>
      </trkpt>
      <trkpt lat="43.8775" lon="6.62877">
        <ele>1557</ele>
        <time>2009-05-05T10:20:38Z</time>
      </trkpt>
      <trkpt lat="43.87897" lon="6.6277">
        <ele>1567</ele>
        <time>2009-05-05T10:20:50Z</time>
      </trkpt>
      <trkpt lat="43.88369" lon="6.63064">
        <ele>1595</ele>
        <time>2009-05-05T10:21:22Z</time>
      </trkpt>
      <trkpt lat="43.88495" lon="6.63406">
        <ele>1617</ele>
        <time>2009-05-05T09:00:10Z</time>
      </trkpt>
      <trkpt lat="43.88368" lon="6.64152">
        <ele>1608</ele>
        <time>2009-05-05T09:04:46Z</time>
      </trkpt>
      <trkpt lat="43.88934" lon="6.65051">
        <ele>1525</ele>
        <time>2009-05-05T09:11:59Z</time>
      </trkpt>
      <trkpt lat="43.89118" lon="6.65573">
        <ele>1422</ele>
        <time>2009-05-05T09:14:23Z</time>
      </trkpt>
      <trkpt lat="43.8916" lon="6.65483">
        <ele>1401</ele>
        <time>2009-05-05T09:14:53Z</time>
      </trkpt>
      <trkpt lat="43.89589" lon="6.66063">
        <ele>1390</ele>
        <time>2009-05-05T09:37:10Z</time>
      </trkpt>
      <trkpt lat="43.89928" lon="6.67095">
        <ele>1255</ele>
        <time>2009-05-05T09:39:54Z</time>
      </trkpt>
      <trkpt lat="43.89662" lon="6.66877">
        <ele>1235</ele>
        <time>2009-05-05T09:45:15Z</time>
      </trkpt>
      <trkpt lat="43.89741" lon="6.67262">
        <ele>1202</ele>
        <time>2009-05-05T09:46:24Z</time>
      </trkpt>
      <trkpt lat="43.89421" lon="6.67458">
        <ele>1262</ele>
        <time>2009-05-05T09:52:42Z</time>
      </trkpt>
      <trkpt lat="43.89165" lon="6.6858">
        <ele>1274</ele>
        <time>2009-05-05T10:02:53Z</time>
      </trkpt>
      <trkpt lat="43.8854" lon="6.68719">
        <ele>1302</ele>
        <time>2009-05-05T10:16:44Z</time>
      </trkpt>
      <trkpt lat="43.8825" lon="6.68667">
        <ele>1213</ele>
        <time>2009-05-05T10:23:12Z</time>
      </trkpt>
      <trkpt lat="43.87862" lon="6.69314">
        <ele>1147</ele>
        <time>2009-05-05T10:40:41Z</time>
      </trkpt>
      <trkpt lat="43.87653" lon="6.69555">
        <ele>1078</ele>
        <time>2009-05-05T10:41:47Z</time>
      </trkpt>
      <trkpt lat="43.8687" lon="6.69395">
        <ele>1139</ele>
        <time>2009-05-05T10:53:35Z</time>
      </trkpt>
      <trkpt lat="43.86595" lon="6.69217">
        <ele>1157</ele>
        <time>2009-05-05T11:02:35Z</time>
      </trkpt>
      <trkpt lat="43.86174" lon="6.68907">
        <ele>1068</ele>
        <time>2009-05-05T11:08:24Z</time>
      </trkpt>
      <trkpt lat="43.8616" lon="6.69426">
        <ele>1061</ele>
        <time>2009-05-05T11:18:21Z</time>
      </trkpt>
      <trkpt lat="43.86312" lon="6.69816">
        <ele>993</ele>
        <time>2009-05-05T11:24:06Z</time>
      </trkpt>
      <trkpt lat="43.86066" lon="6.70188">
        <ele>1023</ele>
        <time>2009-05-05T11:33:47Z</time>
      </trkpt>
      <trkpt lat="43.86039" lon="6.6994">
        <ele>988</ele>
        <time>2009-05-05T11:34:29Z</time>
      </trkpt>
      <trkpt lat="43.8581" lon="6.69819">
        <ele>950</ele>
        <time>2009-05-05T11:37:30Z</time>
      </trkpt>
      <trkpt lat="43.8565" lon="6.70276">
        <ele>947</ele>
        <time>2009-05-05T11:39:07Z</time>
      </trkpt>
      <trkpt lat="43.85684" lon="6.72229">
        <ele>927</ele>
        <time>2009-05-05T11:52:16Z</time>
      </trkpt>
      <trkpt lat="43.85685" lon="6.72033">
        <ele>937</ele>
        <time>2009-05-05T11:52:59Z</time>
      </trkpt>
      <trkpt lat="43.85141" lon="6.72765">
        <ele>1221</ele>
        <time>2009-05-05T12:00:52Z</time>
      </trkpt>
      <trkpt lat="43.85078" lon="6.72998">
        <ele>1152</ele>
        <time>2009-05-05T12:01:51Z</time>
      </trkpt>
      <trkpt lat="43.8494" lon="6.73097">
        <ele>1131</ele>
        <time>2009-05-05T12:02:20Z</time>
      </trkpt>
      <trkpt lat="43.84748" lon="6.73191">
        <ele>1041</ele>
        <time>2009-05-05T14:04:43Z</time>
      </trkpt>
      <trkpt lat="43.8427" lon="6.74367">
        <ele>1031</ele>
        <time>2009-05-05T14:10:03Z</time>
      </trkpt>
      <trkpt lat="43.83762" lon="6.74507">
        <ele>1067</ele>
        <time>2009-05-05T14:13:35Z</time>
      </trkpt>
      <trkpt lat="43.84061" lon="6.74987">
        <ele>1105</ele>
        <time>2009-05-05T14:21:01Z</time>
      </trkpt>
      <trkpt lat="43.84019" lon="6.75644">
        <ele>1171</ele>
        <time>2009-05-05T14:26:49Z</time>
      </trkpt>
      <trkpt lat="43.84117" lon="6.77024">
        <ele>1247</ele>
        <time>2009-05-05T14:39:35Z</time>
      </trkpt>
      <trkpt lat="43.8394" lon="6.76909">
        <ele>1270</ele>
        <time>2009-05-05T14:43:32Z</time>
      </trkpt>
      <trkpt lat="43.84125" lon="6.77352">
        <ele>1267</ele>
        <time>2009-05-05T14:52:47Z</time>
      </trkpt>
      <trkpt lat="43.84383" lon="6.77516">
        <ele>1305</ele>
        <time>2009-05-05T15:06:20Z</time>
      </trkpt>
      <trkpt lat="43.84991" lon="6.78574">
        <ele>1225</ele>
        <time>2009-05-05T15:22:12Z</time>
      </trkpt>
      <trkpt lat="43.85175" lon="6.78731">
        <ele>1159</ele>
        <time>2009-05-05T15:26:04Z</time>
      </trkpt>
      <trkpt lat="43.85181" lon="6.78582">
        <ele>1141</ele>
        <time>2009-05-05T15:26:36Z</time>
      </trkpt>
      <trkpt lat="43.85316" lon="6.7887">
        <ele>1080</ele>
        <time>2009-05-05T15:28:33Z</time>
      </trkpt>
      <trkpt lat="43.85517" lon="6.78886">
        <ele>971</ele>
        <time>2009-05-05T15:32:25Z</time>
      </trkpt>
      <trkpt lat="43.85403" lon="6.7916">
        <ele>942</ele>
        <time>2009-05-05T15:34:22Z</time>
      </trkpt>
      <trkpt lat="43.85491" lon="6.79214">
        <ele>970</ele>
        <time>2009-05-05T15:34:58Z</time>
      </trkpt>
      <trkpt lat="43.85654" lon="6.79386">
        <ele>945</ele>
        <time>2009-05-05T15:36:19Z</time>
      </trkpt>
      <trkpt lat="43.8609" lon="6.79532">
        <ele>848</ele>
        <time>2009-05-05T15:40:26Z</time>
      </trkpt>
      <trkpt lat="43.86247" lon="6.80657">
        <ele>743</ele>
        <time>2009-05-05T14:20:57Z</time>
      </trkpt>
      <trkpt lat="43.85917" lon="6.81235">
        <ele>762</ele>
        <time>2009-05-05T14:25:25Z</time>
      </trkpt>
      <trkpt lat="43.85776" lon="6.82588">
        <ele>727</ele>
        <time>2009-05-05T14:31:48Z</time>
      </trkpt>
      <trkpt lat="43.86511" lon="6.84364">
        <ele>705</ele>
        <time>2009-05-05T14:48:28Z</time>
      </trkpt>
      <trkpt lat="43.86552" lon="6.85685">
        <ele>788</ele>
        <time>2009-05-05T15:13:10Z</time>
      </trkpt>
      <trkpt lat="43.8662" lon="6.86201">
        <ele>705</ele>
        <time>2009-05-05T15:15:28Z</time>
      </trkpt>
      <trkpt lat="43.8719" lon="6.86881">
        <ele>606</ele>
        <time>2009-05-05T15:22:27Z</time>
      </trkpt>
      <trkpt lat="43.87114" lon="6.87096">
        <ele>571</ele>
        <time>2009-05-05T15:27:28Z</time>
      </trkpt>
      <trkpt lat="43.86844" lon="6.86959">
        <ele>643</ele>
        <time>2009-05-05T15:30:37Z</time>
      </trkpt>
      <trkpt lat="43.87018" lon="6.8685">
        <ele>671</ele>
        <time>2009-05-05T15:36:27Z</time>
      </trkpt>
      <trkpt lat="43.86741" lon="6.86497">
        <ele>701</ele>
        <time>2009-05-05T15:40:27Z</time>
      </trkpt>
      <trkpt lat="43.86439" lon="6.86818">
        <ele>736</ele>
        <time>2009-05-05T15:44:34Z</time>
      </trkpt>
      <trkpt lat="43.86206" lon="6.86751">
        <ele>786</ele>
        <time>2009-05-05T15:48:16Z</time>
      </trkpt>
      <trkpt lat="43.86058" lon="6.85739">
        <ele>867</ele>
        <time>2009-05-05T15:57:25Z</time>
      </trkpt>
      <trkpt lat="43.8595" lon="6.87196">
        <ele>970</ele>
        <time>2009-05-05T16:09:53Z</time>
      </trkpt>
      <trkpt lat="43.8603" lon="6.88087">
        <ele>1015</ele>
        <time>2009-05-05T16:16:27Z</time>
      </trkpt>
      <trkpt lat="43.86259" lon="6.89004">
        <ele>1004</ele>
        <time>2009-05-05T16:25:02Z</time>
      </trkpt>
      <trkpt lat="43.85889" lon="6.89482">
        <ele>1164</ele>
        <time>2009-05-05T16:57:36Z</time>
      </trkpt>
      <trkpt lat="43.85725" lon="6.89302">
        <ele>1106</ele>
        <time>2009-05-05T17:01:42Z</time>
      </trkpt>
      <trkpt lat="43.85657" lon="6.89582">
        <ele>1026</ele>
        <time>2009-05-05T17:03:09Z</time>
      </trkpt>
      <trkpt lat="43.85533" lon="6.89488">
        <ele>970</ele>
        <time>2009-05-05T17:05:00Z</time>
      </trkpt>
      <trkpt lat="43.85575" lon="6.90197">
        <ele>758</ele>
        <time>2009-05-05T17:13:25Z</time>
      </trkpt>
      <trkpt lat="43.85265" lon="6.89924">
        <ele>692</ele>
        <time>2009-05-05T17:17:22Z</time>
      </trkpt>
      <trkpt lat="43.85146" lon="6.89927">
        <ele>653</ele>
        <time>2009-05-05T17:18:43Z</time>
      </trkpt>
      <trkpt lat="43.85185" lon="6.89987">
        <ele>629</ele>
        <time>2009-05-05T17:24:05Z</time>
      </trkpt>
      <trkpt lat="43.85391" lon="6.90628">
        <ele>608</ele>
        <time>2009-05-05T17:25:47Z</time>
      </trkpt>
      <trkpt lat="43.85453" lon="6.91137">
        <ele>510</ele>
        <time>2009-05-05T17:27:35Z</time>
      </trkpt>
      <trkpt lat="43.85362" lon="6.91557">
        <ele>476</ele>
        <time>2009-05-05T17:36:24Z</time>
      </trkpt>
      <trkpt lat="43.85583" lon="6.9152">
        <ele>543</ele>
        <time>2009-05-05T17:39:20Z</time>
      </trkpt>
      <trkpt lat="43.85452" lon="6.91919">
        <ele>612</ele>
        <time>2009-05-05T17:41:21Z</time>
      </trkpt>
      <trkpt lat="43.85578" lon="6.92822">
        <ele>601</ele>
        <time>2009-05-06T06:13:40Z</time>
      </trkpt>
      <trkpt lat="43.86319" lon="6.9361">
        <ele>509</ele>
        <time>2009-05-06T06:21:16Z</time>
      </trkpt>
      <trkpt lat="43.863" lon="6.93794">
        <ele>514</ele>
        <time>2009-05-06T06:21:55Z</time>
      </trkpt>
      <trkpt lat="43.8627" lon="6.94293">
        <ele>461</ele>
        <time>2009-05-06T06:23:22Z</time>
      </trkpt>
      <trkpt lat="43.86464" lon="6.94428">
        <ele>410</ele>
        <time>2009-05-06T06:28:21Z</time>
      </trkpt>
      <trkpt lat="43.86624" lon="6.95475">
        <ele>390</ele>
        <time>2009-05-06T06:34:00Z</time>
      </trkpt>
      <trkpt lat="43.8634" lon="6.96564">
        <ele>491</ele>
        <time>2009-05-06T06:57:52Z</time>
      </trkpt>
      <trkpt lat="43.86502" lon="6.97493">
        <ele>511</ele>
        <time>2009-05-06T07:02:43Z</time>
      </trkpt>
      <trkpt lat="43.86814" lon="6.98284">
        <ele>480</ele>
        <time>2009-05-06T07:05:20Z</time>
      </trkpt>
      <trkpt lat="43.86819" lon="6.98534">
        <ele>428</ele>
        <time>2009-05-06T07:06:23Z</time>
      </trkpt>
      <trkpt lat="43.87417" lon="6.99033">
        <ele>403</ele>
        <time>2009-05-06T07:22:23Z</time>
      </trkpt>
      <trkpt lat="43.87474" lon="6.99335">
        <ele>368</ele>
        <time>2009-05-06T07:23:03Z</time>
      </trkpt>
      <trkpt lat="43.87233" lon="7.00611">
        <ele>343</ele>
        <time>2009-05-06T07:28:52Z</time>
      </trkpt>
      <trkpt lat="43.86998" lon="7.00429">
        <ele>328</ele>
        <time>2009-05-06T07:32:57Z</time>
      </trkpt>
      <trkpt lat="43.86555" lon="7.00501">
        <ele>384</ele>
        <time>2009-05-06T07:42:07Z</time>
      </trkpt>
      <trkpt lat="43.86486" lon="7.00844">
        <ele>438</ele>
        <time>2009-05-06T07:45:26Z</time>
      </trkpt>
      <trkpt lat="43.86315" lon="7.01391">
        <ele>491</ele>
        <time>2009-05-06T07:50:36Z</time>
      </trkpt>
      <trkpt lat="43.86304" lon="7.0142">
        <ele>492</ele>
        <time>2009-05-06T07:50:54Z</time>
      </trkpt>
      <trkpt lat="43.85906" lon="7.005">
        <ele>648</ele>
        <time>2009-05-06T08:01:58Z</time>
      </trkpt>
      <trkpt lat="43.85744" lon="7.00142">
        <ele>653</ele>
        <time>2009-05-06T08:10:23Z</time>
      </trkpt>
      <trkpt lat="43.86048" lon="7.00301">
        <ele>673</ele>
        <time>2009-05-06T08:13:32Z</time>
      </trkpt>
      <trkpt lat="43.85776" lon="6.99883">
        <ele>690</ele>
        <time>2009-05-06T08:17:59Z</time>
      </trkpt>
      <trkpt lat="43.85734" lon="6.99663">
        <ele>699</ele>
        <time>2009-05-06T08:18:50Z</time>
      </trkpt>
      <trkpt lat="43.85571" lon="6.99632">
        <ele>713</ele>
        <time>2009-05-06T08:19:50Z</time>
      </trkpt>
      <trkpt lat="43.85194" lon="6.9967">
        <ele>731</ele>
        <time>2009-05-06T08:26:03Z</time>
      </trkpt>
      <trkpt lat="43.85133" lon="6.98962">
        <ele>803</ele>
        <time>2009-05-06T08:30:28Z</time>
      </trkpt>
      <trkpt lat="43.85151" lon="6.98921">
        <ele>792</ele>
        <time>2009-05-06T08:30:52Z</time>
      </trkpt>
      <trkpt lat="43.85023" lon="6.9949">
        <ele>852</ele>
        <time>2009-05-06T08:35:20Z</time>
      </trkpt>
      <trkpt lat="43.85023" lon="6.98694">
        <ele>896</ele>
        <time>2009-05-06T08:40:03Z</time>
      </trkpt>
      <trkpt lat="43.846" lon="6.99297">
        <ele>889</ele>
        <time>2009-05-06T08:42:25Z</time>
      </trkpt>
      <trkpt lat="43.8432" lon="6.99105">
        <ele>869</ele>
        <time>2010-10-06T12:20:33Z</time>
      </trkpt>
      <trkpt lat="43.83255" lon="7.01843">
        <ele>1297</ele>
        <time>2010-10-06T13:13:50Z</time>
      </trkpt>
      <trkpt lat="43.83239" lon="7.0194">
        <ele>1302</ele>
        <time>2010-10-06T13:15:54Z</time>
      </trkpt>
      <trkpt lat="43.83269" lon="7.01034">
        <ele>1324</ele>
        <time>2010-10-06T13:36:13Z</time>
      </trkpt>
      <trkpt lat="43.83019" lon="7.00502">
        <ele>1437</ele>
        <time>2010-10-06T14:10:39Z</time>
      </trkpt>
      <trkpt lat="43.83027" lon="7.00542">
        <ele>1437</ele>
        <time>2010-10-06T14:11:09Z</time>
      </trkpt>
      <trkpt lat="43.82908" lon="7.01098">
        <ele>1467</ele>
        <time>2010-10-06T14:18:09Z</time>
      </trkpt>
      <trkpt lat="43.82572" lon="7.01238">
        <ele>1474</ele>
        <time>2010-10-06T14:28:20Z</time>
      </trkpt>
      <trkpt lat="43.82229" lon="7.00996">
        <ele>1504</ele>
        <time>2010-10-06T14:32:29Z</time>
      </trkpt>
      <trkpt lat="43.8198" lon="7.00657">
        <ele>1467</ele>
        <time>2010-10-06T14:42:25Z</time>
      </trkpt>
      <trkpt lat="43.81993" lon="7.00965">
        <ele>1440</ele>
        <time>2010-10-06T14:45:14Z</time>
      </trkpt>
      <trkpt lat="43.81247" lon="7.01661">
        <ele>1433</ele>
        <time>2010-10-06T14:56:54Z</time>
      </trkpt>
      <trkpt lat="43.80807" lon="7.02893">
        <ele>1444</ele>
        <time>2010-10-06T15:05:10Z</time>
      </trkpt>
      <trkpt lat="43.806" lon="7.03137">
        <ele>1422</ele>
        <time>2010-10-06T15:11:55Z</time>
      </trkpt>
      <trkpt lat="43.80477" lon="7.03279">
        <ele>1382</ele>
        <time>2010-10-06T15:12:59Z</time>
      </trkpt>
      <trkpt lat="43.8052" lon="7.03137">
        <ele>1371</ele>
        <time>2010-10-06T15:14:04Z</time>
      </trkpt>
      <trkpt lat="43.80473" lon="7.03207">
        <ele>1361</ele>
        <time>2010-10-06T15:14:24Z</time>
      </trkpt>
      <trkpt lat="43.80401" lon="7.03121">
        <ele>1295</ele>
        <time>2010-10-06T15:16:40Z</time>
      </trkpt>
      <trkpt lat="43.80454" lon="7.02982">
        <ele>1274</ele>
        <time>2010-10-06T15:17:20Z</time>
      </trkpt>
      <trkpt lat="43.80225" lon="7.02806">
        <ele>1159</ele>
        <time>2010-10-06T15:25:47Z</time>
      </trkpt>
      <trkpt lat="43.79581" lon="7.04219">
        <ele>1008</ele>
        <time>2010-10-06T15:43:29Z</time>
      </trkpt>
      <trkpt lat="43.79471" lon="7.04065">
        <ele>1059</ele>
        <time>2010-10-06T15:59:20Z</time>
      </trkpt>
      <trkpt lat="43.78997" lon="7.04857">
        <ele>971</ele>
        <time>2010-10-06T16:12:23Z</time>
      </trkpt>
      <trkpt lat="43.78579" lon="7.05123">
        <ele>903</ele>
        <time>2010-10-06T16:14:33Z</time>
      </trkpt>
      <trkpt lat="43.78109" lon="7.05966">
        <ele>997</ele>
        <time>2010-10-06T16:32:06Z</time>
      </trkpt>
      <trkpt lat="43.77532" lon="7.06335">
        <ele>1086</ele>
        <time>2010-10-06T16:46:51Z</time>
      </trkpt>
      <trkpt lat="43.77311" lon="7.06235">
        <ele>1061</ele>
        <time>2010-10-06T16:50:16Z</time>
      </trkpt>
      <trkpt lat="43.77292" lon="7.05571">
        <ele>1007</ele>
        <time>2010-10-06T16:54:46Z</time>
      </trkpt>
      <trkpt lat="43.76833" lon="7.06947">
        <ele>934</ele>
        <time>2010-10-06T17:02:51Z</time>
      </trkpt>
      <trkpt lat="43.77542" lon="7.07652">
        <ele>845</ele>
        <time>2010-10-06T17:11:21Z</time>
      </trkpt>
      <trkpt lat="43.77764" lon="7.07734">
        <ele>761</ele>
        <time>2010-10-06T17:13:01Z</time>
      </trkpt>
      <trkpt lat="43.78165" lon="7.08805">
        <ele>636</ele>
        <time>2010-10-06T17:23:15Z</time>
      </trkpt>
      <trkpt lat="43.78366" lon="7.09698">
        <ele>753</ele>
        <time>2010-10-06T17:36:15Z</time>
      </trkpt>
      <trkpt lat="43.78382" lon="7.09725">
        <ele>740</ele>
        <time>2010-10-06T17:36:35Z</time>
      </trkpt>
      <trkpt lat="43.78521" lon="7.08936">
        <ele>838</ele>
        <time>2010-10-06T17:46:10Z</time>
      </trkpt>
      <trkpt lat="43.78783" lon="7.09175">
        <ele>875</ele>
        <time>2010-10-06T17:49:00Z</time>
      </trkpt>
      <trkpt lat="43.79161" lon="7.0913">
        <ele>881</ele>
        <time>2010-10-06T17:53:10Z</time>
      </trkpt>
      <trkpt lat="43.79189" lon="7.09058">
        <ele>916</ele>
        <time>2010-10-06T17:53:50Z</time>
      </trkpt>
      <trkpt lat="43.79327" lon="7.08747">
        <ele>943</ele>
        <time>2010-10-06T17:56:40Z</time>
      </trkpt>
      <trkpt lat="43.79408" lon="7.08566">
        <ele>954</ele>
        <time>2010-10-06T17:57:50Z</time>
      </trkpt>
      <trkpt lat="43.79749" lon="7.08382">
        <ele>956</ele>
        <time>2010-10-06T18:09:20Z</time>
      </trkpt>
      <trkpt lat="43.79798" lon="7.086">
        <ele>1007</ele>
        <time>2010-10-06T13:39:01Z</time>
      </trkpt>
      <trkpt lat="43.80001" lon="7.09051">
        <ele>903</ele>
        <time>2010-10-06T13:45:48Z</time>
      </trkpt>
      <trkpt lat="43.8009" lon="7.11309">
        <ele>903</ele>
        <time>2010-10-06T14:03:27Z</time>
      </trkpt>
      <trkpt lat="43.79622" lon="7.11481">
        <ele>958</ele>
        <time>2010-10-06T14:15:07Z</time>
      </trkpt>
      <trkpt lat="43.79505" lon="7.12585">
        <ele>1023</ele>
        <time>2010-10-06T14:25:18Z</time>
      </trkpt>
      <trkpt lat="43.7936" lon="7.12719">
        <ele>1023</ele>
        <time>2010-10-06T14:26:28Z</time>
      </trkpt>
      <trkpt lat="43.78775" lon="7.14336">
        <ele>892</ele>
        <time>2010-10-06T14:51:02Z</time>
      </trkpt>
      <trkpt lat="43.78375" lon="7.14241">
        <ele>846</ele>
        <time>2010-10-06T14:58:11Z</time>
      </trkpt>
      <trkpt lat="43.78661" lon="7.14698">
        <ele>811</ele>
        <time>2010-10-06T15:01:38Z</time>
      </trkpt>
      <trkpt lat="43.78674" lon="7.14705">
        <ele>771</ele>
        <time>2010-10-06T15:03:03Z</time>
      </trkpt>
      <trkpt lat="43.78646" lon="7.14693">
        <ele>816</ele>
        <time>2010-10-06T15:07:36Z</time>
      </trkpt>
      <trkpt lat="43.78595" lon="7.14662">
        <ele>813</ele>
        <time>2010-10-06T15:07:56Z</time>
      </trkpt>
      <trkpt lat="43.78509" lon="7.14601">
        <ele>825</ele>
        <time>2010-10-06T15:08:26Z</time>
      </trkpt>
      <trkpt lat="43.78376" lon="7.14407">
        <ele>808</ele>
        <time>2010-10-06T15:11:59Z</time>
      </trkpt>
      <trkpt lat="43.78276" lon="7.14386">
        <ele>841</ele>
        <time>2010-10-06T15:13:16Z</time>
      </trkpt>
      <trkpt lat="43.77785" lon="7.14202">
        <ele>850</ele>
        <time>2010-10-06T15:20:30Z</time>
      </trkpt>
      <trkpt lat="43.77468" lon="7.13989">
        <ele>792</ele>
        <time>2010-10-06T15:34:03Z</time>
      </trkpt>
      <trkpt lat="43.76952" lon="7.1448">
        <ele>749</ele>
        <time>2010-10-06T15:43:02Z</time>
      </trkpt>
      <trkpt lat="43.75723" lon="7.14333">
        <ele>639</ele>
        <time>2010-10-06T15:52:31Z</time>
      </trkpt>
      <trkpt lat="43.75011" lon="7.14155">
        <ele>507</ele>
        <time>2010-10-06T16:03:19Z</time>
      </trkpt>
      <trkpt lat="43.74807" lon="7.14294">
        <ele>461</ele>
        <time>2010-10-06T16:14:01Z</time>
      </trkpt>
      <trkpt lat="43.74931" lon="7.147">
        <ele>418</ele>
        <time>2010-10-06T16:23:19Z</time>
      </trkpt>
      <trkpt lat="43.75" lon="7.15579">
        <ele>385</ele>
        <time>2010-10-06T16:33:53Z</time>
      </trkpt>
      <trkpt lat="43.75057" lon="7.1576">
        <ele>375</ele>
        <time>2010-10-06T16:34:23Z</time>
      </trkpt>
      <trkpt lat="43.75985" lon="7.16699">
        <ele>411</ele>
        <time>2010-10-06T16:49:24Z</time>
      </trkpt>
      <trkpt lat="43.75892" lon="7.1746">
        <ele>293</ele>
        <time>2010-10-06T17:03:05Z</time>
      </trkpt>
      <trkpt lat="43.76101" lon="7.17956">
        <ele>311</ele>
        <time>2010-10-06T17:15:09Z</time>
      </trkpt>
      <trkpt lat="43.76234" lon="7.17777">
        <ele>223</ele>
        <time>2010-10-06T17:19:36Z</time>
      </trkpt>
      <trkpt lat="43.76378" lon="7.18498">
        <ele>130</ele>
        <time>2010-10-06T17:29:48Z</time>
      </trkpt>
      <trkpt lat="43.76658" lon="7.18935">
        <ele>104</ele>
        <time>2010-10-06T17:34:31Z</time>
      </trkpt>
      <trkpt lat="43.76607" lon="7.19263">
        <ele>90</ele>
        <time>2010-10-06T17:39:18Z</time>
      </trkpt>
      <trkpt lat="43.76587" lon="7.20159">
        <ele>68</ele>
        <time>2010-10-06T17:49:57Z</time>
      </trkpt>
    </trkseg>
  </trk>
</gpx>